<?xml version="1.0" encoding="UTF-8" standalone="no" ?>
<gpx xmlns="http://www.topografix.com/GPX/1/1" xmlns:xsi="http://www.w3.org/2001/XMLSchema-instance" xsi:schemaLocation="http://www.topografix.com/GPX/1/1 http://www.topografix.com/GPX/1/1/gpx.xsd" version="1.1" creator="VisuGPX - https://www.visugpx.com">
  <metadata>
    <name>J1 moyen</name>
    <desc><![CDATA[

]]></desc>
  </metadata>
  <trk>
    <name><![CDATA[boucle de salletairne   petit parcourt  66 km 77-20077700]]></name>
    <desc><![CDATA[

]]></desc>
    <extensions>
      <line xmlns="http://www.topografix.com/GPX/gpx_style/0/2">
        <color>0000FF</color>
        <width>4</width>
      </line>
    </extensions>
    <trkseg>
      <trkpt lat="46.75812" lon="-1.78678">
        <ele>36</ele>
        <time>2024-12-16T18:24:41Z</time>
      </trkpt>
      <trkpt lat="46.75809" lon="-1.7868">
        <ele>36</ele>
        <time>2024-12-16T18:24:42Z</time>
      </trkpt>
      <trkpt lat="46.75768" lon="-1.78711">
        <ele>32</ele>
        <time>2024-12-16T18:24:50Z</time>
      </trkpt>
      <trkpt lat="46.75601" lon="-1.7884">
        <ele>22</ele>
        <time>2024-12-16T18:25:23Z</time>
      </trkpt>
      <trkpt lat="46.75574" lon="-1.78865">
        <ele>21</ele>
        <time>2024-12-16T18:25:29Z</time>
      </trkpt>
      <trkpt lat="46.75521" lon="-1.78946">
        <ele>18</ele>
        <time>2024-12-16T18:25:43Z</time>
      </trkpt>
      <trkpt lat="46.75489" lon="-1.79002">
        <ele>18</ele>
        <time>2024-12-16T18:25:52Z</time>
      </trkpt>
      <trkpt lat="46.7547" lon="-1.79023">
        <ele>17</ele>
        <time>2024-12-16T18:25:56Z</time>
      </trkpt>
      <trkpt lat="46.75457" lon="-1.79039">
        <ele>16</ele>
        <time>2024-12-16T18:25:59Z</time>
      </trkpt>
      <trkpt lat="46.75386" lon="-1.79145">
        <ele>15</ele>
        <time>2024-12-16T18:26:17Z</time>
      </trkpt>
      <trkpt lat="46.75367" lon="-1.79167">
        <ele>15</ele>
        <time>2024-12-16T18:26:21Z</time>
      </trkpt>
      <trkpt lat="46.75364" lon="-1.79169">
        <ele>15</ele>
        <time>2024-12-16T18:26:22Z</time>
      </trkpt>
      <trkpt lat="46.75363" lon="-1.79185">
        <ele>15</ele>
        <time>2024-12-16T18:26:24Z</time>
      </trkpt>
      <trkpt lat="46.75341" lon="-1.79261">
        <ele>12</ele>
        <time>2024-12-16T18:26:34Z</time>
      </trkpt>
      <trkpt lat="46.75333" lon="-1.79277">
        <ele>11</ele>
        <time>2024-12-16T18:26:36Z</time>
      </trkpt>
      <trkpt lat="46.75309" lon="-1.7931">
        <ele>11</ele>
        <time>2024-12-16T18:26:42Z</time>
      </trkpt>
      <trkpt lat="46.75292" lon="-1.79342">
        <ele>12</ele>
        <time>2024-12-16T18:26:47Z</time>
      </trkpt>
      <trkpt lat="46.7528" lon="-1.79372">
        <ele>12</ele>
        <time>2024-12-16T18:26:51Z</time>
      </trkpt>
      <trkpt lat="46.75269" lon="-1.79406">
        <ele>12</ele>
        <time>2024-12-16T18:26:56Z</time>
      </trkpt>
      <trkpt lat="46.7526" lon="-1.79448">
        <ele>13</ele>
        <time>2024-12-16T18:27:01Z</time>
      </trkpt>
      <trkpt lat="46.7525" lon="-1.79548">
        <ele>14</ele>
        <time>2024-12-16T18:27:14Z</time>
      </trkpt>
      <trkpt lat="46.75248" lon="-1.79563">
        <ele>14</ele>
        <time>2024-12-16T18:27:15Z</time>
      </trkpt>
      <trkpt lat="46.75237" lon="-1.79611">
        <ele>16</ele>
        <time>2024-12-16T18:27:22Z</time>
      </trkpt>
      <trkpt lat="46.75221" lon="-1.7966">
        <ele>17</ele>
        <time>2024-12-16T18:27:28Z</time>
      </trkpt>
      <trkpt lat="46.75184" lon="-1.79726">
        <ele>17</ele>
        <time>2024-12-16T18:27:39Z</time>
      </trkpt>
      <trkpt lat="46.75172" lon="-1.79759">
        <ele>17</ele>
        <time>2024-12-16T18:27:43Z</time>
      </trkpt>
      <trkpt lat="46.75158" lon="-1.79815">
        <ele>16</ele>
        <time>2024-12-16T18:27:50Z</time>
      </trkpt>
      <trkpt lat="46.75134" lon="-1.79893">
        <ele>15</ele>
        <time>2024-12-16T18:28:01Z</time>
      </trkpt>
      <trkpt lat="46.7512" lon="-1.79928">
        <ele>15</ele>
        <time>2024-12-16T18:28:06Z</time>
      </trkpt>
      <trkpt lat="46.75117" lon="-1.79933">
        <ele>15</ele>
        <time>2024-12-16T18:28:07Z</time>
      </trkpt>
      <trkpt lat="46.7511" lon="-1.79943">
        <ele>14</ele>
        <time>2024-12-16T18:28:08Z</time>
      </trkpt>
      <trkpt lat="46.75101" lon="-1.79949">
        <ele>14</ele>
        <time>2024-12-16T18:28:10Z</time>
      </trkpt>
      <trkpt lat="46.75056" lon="-1.79971">
        <ele>14</ele>
        <time>2024-12-16T18:28:19Z</time>
      </trkpt>
      <trkpt lat="46.75017" lon="-1.79995">
        <ele>13</ele>
        <time>2024-12-16T18:28:26Z</time>
      </trkpt>
      <trkpt lat="46.75016" lon="-1.79994">
        <ele>13</ele>
        <time>2024-12-16T18:28:26Z</time>
      </trkpt>
      <trkpt lat="46.75017" lon="-1.79995">
        <ele>13</ele>
        <time>2024-12-16T18:28:27Z</time>
      </trkpt>
      <trkpt lat="46.75037" lon="-1.80123">
        <ele>12</ele>
        <time>2024-12-16T18:28:43Z</time>
      </trkpt>
      <trkpt lat="46.75096" lon="-1.80489">
        <ele>15</ele>
        <time>2024-12-16T18:29:28Z</time>
      </trkpt>
      <trkpt lat="46.75103" lon="-1.8053">
        <ele>14</ele>
        <time>2024-12-16T18:29:34Z</time>
      </trkpt>
      <trkpt lat="46.75156" lon="-1.80863">
        <ele>11</ele>
        <time>2024-12-16T18:30:15Z</time>
      </trkpt>
      <trkpt lat="46.75167" lon="-1.80933">
        <ele>11</ele>
        <time>2024-12-16T18:30:24Z</time>
      </trkpt>
      <trkpt lat="46.7519" lon="-1.81074">
        <ele>10</ele>
        <time>2024-12-16T18:30:42Z</time>
      </trkpt>
      <trkpt lat="46.75212" lon="-1.81196">
        <ele>10</ele>
        <time>2024-12-16T18:30:57Z</time>
      </trkpt>
      <trkpt lat="46.75217" lon="-1.81212">
        <ele>10</ele>
        <time>2024-12-16T18:30:59Z</time>
      </trkpt>
      <trkpt lat="46.75231" lon="-1.8126">
        <ele>10</ele>
        <time>2024-12-16T18:31:06Z</time>
      </trkpt>
      <trkpt lat="46.75244" lon="-1.81295">
        <ele>10</ele>
        <time>2024-12-16T18:31:10Z</time>
      </trkpt>
      <trkpt lat="46.75329" lon="-1.81488">
        <ele>9</ele>
        <time>2024-12-16T18:31:38Z</time>
      </trkpt>
      <trkpt lat="46.754" lon="-1.81649">
        <ele>9</ele>
        <time>2024-12-16T18:32:02Z</time>
      </trkpt>
      <trkpt lat="46.7544" lon="-1.8174">
        <ele>9</ele>
        <time>2024-12-16T18:32:15Z</time>
      </trkpt>
      <trkpt lat="46.75451" lon="-1.81763">
        <ele>9</ele>
        <time>2024-12-16T18:32:18Z</time>
      </trkpt>
      <trkpt lat="46.75478" lon="-1.81808">
        <ele>9</ele>
        <time>2024-12-16T18:32:26Z</time>
      </trkpt>
      <trkpt lat="46.75494" lon="-1.81831">
        <ele>9</ele>
        <time>2024-12-16T18:32:30Z</time>
      </trkpt>
      <trkpt lat="46.75528" lon="-1.81874">
        <ele>8</ele>
        <time>2024-12-16T18:32:38Z</time>
      </trkpt>
      <trkpt lat="46.75576" lon="-1.8192">
        <ele>7</ele>
        <time>2024-12-16T18:32:48Z</time>
      </trkpt>
      <trkpt lat="46.75576" lon="-1.81919">
        <ele>7</ele>
        <time>2024-12-16T18:32:48Z</time>
      </trkpt>
      <trkpt lat="46.75576" lon="-1.8192">
        <ele>7</ele>
        <time>2024-12-16T18:32:48Z</time>
      </trkpt>
      <trkpt lat="46.75581" lon="-1.81925">
        <ele>7</ele>
        <time>2024-12-16T18:32:49Z</time>
      </trkpt>
      <trkpt lat="46.75637" lon="-1.81971">
        <ele>6</ele>
        <time>2024-12-16T18:33:01Z</time>
      </trkpt>
      <trkpt lat="46.75691" lon="-1.82015">
        <ele>6</ele>
        <time>2024-12-16T18:33:12Z</time>
      </trkpt>
      <trkpt lat="46.757" lon="-1.82024">
        <ele>6</ele>
        <time>2024-12-16T18:33:14Z</time>
      </trkpt>
      <trkpt lat="46.75787" lon="-1.82097">
        <ele>7</ele>
        <time>2024-12-16T18:33:31Z</time>
      </trkpt>
      <trkpt lat="46.75809" lon="-1.8212">
        <ele>7</ele>
        <time>2024-12-16T18:33:36Z</time>
      </trkpt>
      <trkpt lat="46.75823" lon="-1.82138">
        <ele>7</ele>
        <time>2024-12-16T18:33:40Z</time>
      </trkpt>
      <trkpt lat="46.75838" lon="-1.82159">
        <ele>7</ele>
        <time>2024-12-16T18:33:43Z</time>
      </trkpt>
      <trkpt lat="46.75862" lon="-1.82201">
        <ele>7</ele>
        <time>2024-12-16T18:33:50Z</time>
      </trkpt>
      <trkpt lat="46.75882" lon="-1.82248">
        <ele>7</ele>
        <time>2024-12-16T18:33:57Z</time>
      </trkpt>
      <trkpt lat="46.75892" lon="-1.82274">
        <ele>7</ele>
        <time>2024-12-16T18:34:00Z</time>
      </trkpt>
      <trkpt lat="46.75905" lon="-1.8232">
        <ele>7</ele>
        <time>2024-12-16T18:34:06Z</time>
      </trkpt>
      <trkpt lat="46.75921" lon="-1.82386">
        <ele>7</ele>
        <time>2024-12-16T18:34:15Z</time>
      </trkpt>
      <trkpt lat="46.75928" lon="-1.82414">
        <ele>7</ele>
        <time>2024-12-16T18:34:19Z</time>
      </trkpt>
      <trkpt lat="46.75974" lon="-1.82595">
        <ele>8</ele>
        <time>2024-12-16T18:34:42Z</time>
      </trkpt>
      <trkpt lat="46.76006" lon="-1.82714">
        <ele>8</ele>
        <time>2024-12-16T18:34:58Z</time>
      </trkpt>
      <trkpt lat="46.76023" lon="-1.82782">
        <ele>8</ele>
        <time>2024-12-16T18:35:06Z</time>
      </trkpt>
      <trkpt lat="46.76062" lon="-1.82933">
        <ele>8</ele>
        <time>2024-12-16T18:35:26Z</time>
      </trkpt>
      <trkpt lat="46.76065" lon="-1.82945">
        <ele>8</ele>
        <time>2024-12-16T18:35:28Z</time>
      </trkpt>
      <trkpt lat="46.76105" lon="-1.83101">
        <ele>13</ele>
        <time>2024-12-16T18:35:48Z</time>
      </trkpt>
      <trkpt lat="46.76137" lon="-1.83228">
        <ele>14</ele>
        <time>2024-12-16T18:36:04Z</time>
      </trkpt>
      <trkpt lat="46.76148" lon="-1.8327">
        <ele>15</ele>
        <time>2024-12-16T18:36:10Z</time>
      </trkpt>
      <trkpt lat="46.76155" lon="-1.83292">
        <ele>15</ele>
        <time>2024-12-16T18:36:13Z</time>
      </trkpt>
      <trkpt lat="46.76157" lon="-1.83302">
        <ele>16</ele>
        <time>2024-12-16T18:36:14Z</time>
      </trkpt>
      <trkpt lat="46.76165" lon="-1.83333">
        <ele>16</ele>
        <time>2024-12-16T18:36:18Z</time>
      </trkpt>
      <trkpt lat="46.76182" lon="-1.83398">
        <ele>17</ele>
        <time>2024-12-16T18:36:27Z</time>
      </trkpt>
      <trkpt lat="46.76188" lon="-1.8342">
        <ele>17</ele>
        <time>2024-12-16T18:36:30Z</time>
      </trkpt>
      <trkpt lat="46.76191" lon="-1.83433">
        <ele>17</ele>
        <time>2024-12-16T18:36:31Z</time>
      </trkpt>
      <trkpt lat="46.76199" lon="-1.83465">
        <ele>17</ele>
        <time>2024-12-16T18:36:35Z</time>
      </trkpt>
      <trkpt lat="46.7621" lon="-1.83506">
        <ele>17</ele>
        <time>2024-12-16T18:36:41Z</time>
      </trkpt>
      <trkpt lat="46.76236" lon="-1.83603">
        <ele>18</ele>
        <time>2024-12-16T18:36:53Z</time>
      </trkpt>
      <trkpt lat="46.76236" lon="-1.83608">
        <ele>18</ele>
        <time>2024-12-16T18:36:54Z</time>
      </trkpt>
      <trkpt lat="46.76243" lon="-1.83643">
        <ele>18</ele>
        <time>2024-12-16T18:36:59Z</time>
      </trkpt>
      <trkpt lat="46.76243" lon="-1.83659">
        <ele>19</ele>
        <time>2024-12-16T18:37:00Z</time>
      </trkpt>
      <trkpt lat="46.76243" lon="-1.8367">
        <ele>19</ele>
        <time>2024-12-16T18:37:02Z</time>
      </trkpt>
      <trkpt lat="46.76244" lon="-1.8368">
        <ele>19</ele>
        <time>2024-12-16T18:37:03Z</time>
      </trkpt>
      <trkpt lat="46.76243" lon="-1.8367">
        <ele>19</ele>
        <time>2024-12-16T18:37:04Z</time>
      </trkpt>
      <trkpt lat="46.76227" lon="-1.83673">
        <ele>19</ele>
        <time>2024-12-16T18:37:07Z</time>
      </trkpt>
      <trkpt lat="46.76213" lon="-1.83682">
        <ele>19</ele>
        <time>2024-12-16T18:37:10Z</time>
      </trkpt>
      <trkpt lat="46.76207" lon="-1.83687">
        <ele>19</ele>
        <time>2024-12-16T18:37:11Z</time>
      </trkpt>
      <trkpt lat="46.76196" lon="-1.83699">
        <ele>19</ele>
        <time>2024-12-16T18:37:14Z</time>
      </trkpt>
      <trkpt lat="46.76193" lon="-1.83703">
        <ele>19</ele>
        <time>2024-12-16T18:37:14Z</time>
      </trkpt>
      <trkpt lat="46.76183" lon="-1.8372">
        <ele>20</ele>
        <time>2024-12-16T18:37:17Z</time>
      </trkpt>
      <trkpt lat="46.7618" lon="-1.83724">
        <ele>20</ele>
        <time>2024-12-16T18:37:18Z</time>
      </trkpt>
      <trkpt lat="46.76173" lon="-1.83731">
        <ele>20</ele>
        <time>2024-12-16T18:37:19Z</time>
      </trkpt>
      <trkpt lat="46.7616" lon="-1.83741">
        <ele>20</ele>
        <time>2024-12-16T18:37:22Z</time>
      </trkpt>
      <trkpt lat="46.76146" lon="-1.83751">
        <ele>20</ele>
        <time>2024-12-16T18:37:25Z</time>
      </trkpt>
      <trkpt lat="46.76134" lon="-1.83758">
        <ele>20</ele>
        <time>2024-12-16T18:37:27Z</time>
      </trkpt>
      <trkpt lat="46.76123" lon="-1.83771">
        <ele>20</ele>
        <time>2024-12-16T18:37:29Z</time>
      </trkpt>
      <trkpt lat="46.76118" lon="-1.83779">
        <ele>20</ele>
        <time>2024-12-16T18:37:31Z</time>
      </trkpt>
      <trkpt lat="46.76113" lon="-1.83788">
        <ele>20</ele>
        <time>2024-12-16T18:37:32Z</time>
      </trkpt>
      <trkpt lat="46.76107" lon="-1.83799">
        <ele>21</ele>
        <time>2024-12-16T18:37:34Z</time>
      </trkpt>
      <trkpt lat="46.76082" lon="-1.83842">
        <ele>21</ele>
        <time>2024-12-16T18:37:41Z</time>
      </trkpt>
      <trkpt lat="46.76051" lon="-1.83902">
        <ele>21</ele>
        <time>2024-12-16T18:37:50Z</time>
      </trkpt>
      <trkpt lat="46.76046" lon="-1.83948">
        <ele>21</ele>
        <time>2024-12-16T18:37:56Z</time>
      </trkpt>
      <trkpt lat="46.76044" lon="-1.84003">
        <ele>21</ele>
        <time>2024-12-16T18:38:02Z</time>
      </trkpt>
      <trkpt lat="46.76045" lon="-1.8401">
        <ele>21</ele>
        <time>2024-12-16T18:38:03Z</time>
      </trkpt>
      <trkpt lat="46.76047" lon="-1.84073">
        <ele>21</ele>
        <time>2024-12-16T18:38:11Z</time>
      </trkpt>
      <trkpt lat="46.76047" lon="-1.84081">
        <ele>21</ele>
        <time>2024-12-16T18:38:12Z</time>
      </trkpt>
      <trkpt lat="46.76047" lon="-1.84086">
        <ele>21</ele>
        <time>2024-12-16T18:38:12Z</time>
      </trkpt>
      <trkpt lat="46.7605" lon="-1.84115">
        <ele>21</ele>
        <time>2024-12-16T18:38:16Z</time>
      </trkpt>
      <trkpt lat="46.76054" lon="-1.8414">
        <ele>22</ele>
        <time>2024-12-16T18:38:19Z</time>
      </trkpt>
      <trkpt lat="46.76059" lon="-1.84188">
        <ele>22</ele>
        <time>2024-12-16T18:38:25Z</time>
      </trkpt>
      <trkpt lat="46.7606" lon="-1.84202">
        <ele>22</ele>
        <time>2024-12-16T18:38:27Z</time>
      </trkpt>
      <trkpt lat="46.76063" lon="-1.84222">
        <ele>22</ele>
        <time>2024-12-16T18:38:29Z</time>
      </trkpt>
      <trkpt lat="46.76064" lon="-1.84242">
        <ele>22</ele>
        <time>2024-12-16T18:38:32Z</time>
      </trkpt>
      <trkpt lat="46.76065" lon="-1.84258">
        <ele>22</ele>
        <time>2024-12-16T18:38:34Z</time>
      </trkpt>
      <trkpt lat="46.7607" lon="-1.84335">
        <ele>21</ele>
        <time>2024-12-16T18:38:43Z</time>
      </trkpt>
      <trkpt lat="46.7607" lon="-1.84341">
        <ele>21</ele>
        <time>2024-12-16T18:38:44Z</time>
      </trkpt>
      <trkpt lat="46.76074" lon="-1.84386">
        <ele>21</ele>
        <time>2024-12-16T18:38:49Z</time>
      </trkpt>
      <trkpt lat="46.76074" lon="-1.84413">
        <ele>21</ele>
        <time>2024-12-16T18:38:53Z</time>
      </trkpt>
      <trkpt lat="46.76069" lon="-1.84476">
        <ele>20</ele>
        <time>2024-12-16T18:39:00Z</time>
      </trkpt>
      <trkpt lat="46.76067" lon="-1.84511">
        <ele>20</ele>
        <time>2024-12-16T18:39:05Z</time>
      </trkpt>
      <trkpt lat="46.76057" lon="-1.84585">
        <ele>21</ele>
        <time>2024-12-16T18:39:14Z</time>
      </trkpt>
      <trkpt lat="46.76049" lon="-1.84635">
        <ele>21</ele>
        <time>2024-12-16T18:39:20Z</time>
      </trkpt>
      <trkpt lat="46.76046" lon="-1.84647">
        <ele>21</ele>
        <time>2024-12-16T18:39:22Z</time>
      </trkpt>
      <trkpt lat="46.76038" lon="-1.84671">
        <ele>20</ele>
        <time>2024-12-16T18:39:25Z</time>
      </trkpt>
      <trkpt lat="46.76031" lon="-1.84695">
        <ele>20</ele>
        <time>2024-12-16T18:39:28Z</time>
      </trkpt>
      <trkpt lat="46.7601" lon="-1.84733">
        <ele>20</ele>
        <time>2024-12-16T18:39:34Z</time>
      </trkpt>
      <trkpt lat="46.75992" lon="-1.8476">
        <ele>20</ele>
        <time>2024-12-16T18:39:39Z</time>
      </trkpt>
      <trkpt lat="46.75973" lon="-1.84784">
        <ele>20</ele>
        <time>2024-12-16T18:39:43Z</time>
      </trkpt>
      <trkpt lat="46.75971" lon="-1.84786">
        <ele>20</ele>
        <time>2024-12-16T18:39:44Z</time>
      </trkpt>
      <trkpt lat="46.75961" lon="-1.84799">
        <ele>20</ele>
        <time>2024-12-16T18:39:46Z</time>
      </trkpt>
      <trkpt lat="46.75928" lon="-1.84849">
        <ele>21</ele>
        <time>2024-12-16T18:39:54Z</time>
      </trkpt>
      <trkpt lat="46.75912" lon="-1.84866">
        <ele>21</ele>
        <time>2024-12-16T18:39:58Z</time>
      </trkpt>
      <trkpt lat="46.75904" lon="-1.84878">
        <ele>21</ele>
        <time>2024-12-16T18:40:00Z</time>
      </trkpt>
      <trkpt lat="46.75896" lon="-1.84889">
        <ele>21</ele>
        <time>2024-12-16T18:40:02Z</time>
      </trkpt>
      <trkpt lat="46.75868" lon="-1.84937">
        <ele>20</ele>
        <time>2024-12-16T18:40:10Z</time>
      </trkpt>
      <trkpt lat="46.75832" lon="-1.85016">
        <ele>21</ele>
        <time>2024-12-16T18:40:21Z</time>
      </trkpt>
      <trkpt lat="46.75831" lon="-1.85018">
        <ele>21</ele>
        <time>2024-12-16T18:40:21Z</time>
      </trkpt>
      <trkpt lat="46.75794" lon="-1.85103">
        <ele>21</ele>
        <time>2024-12-16T18:40:34Z</time>
      </trkpt>
      <trkpt lat="46.75787" lon="-1.8512">
        <ele>21</ele>
        <time>2024-12-16T18:40:36Z</time>
      </trkpt>
      <trkpt lat="46.7575" lon="-1.85209">
        <ele>21</ele>
        <time>2024-12-16T18:40:49Z</time>
      </trkpt>
      <trkpt lat="46.75733" lon="-1.85247">
        <ele>21</ele>
        <time>2024-12-16T18:40:54Z</time>
      </trkpt>
      <trkpt lat="46.75721" lon="-1.85276">
        <ele>21</ele>
        <time>2024-12-16T18:40:59Z</time>
      </trkpt>
      <trkpt lat="46.7571" lon="-1.85301">
        <ele>22</ele>
        <time>2024-12-16T18:41:02Z</time>
      </trkpt>
      <trkpt lat="46.75623" lon="-1.85503">
        <ele>20</ele>
        <time>2024-12-16T18:41:31Z</time>
      </trkpt>
      <trkpt lat="46.75591" lon="-1.85595">
        <ele>21</ele>
        <time>2024-12-16T18:41:44Z</time>
      </trkpt>
      <trkpt lat="46.75559" lon="-1.85701">
        <ele>20</ele>
        <time>2024-12-16T18:41:58Z</time>
      </trkpt>
      <trkpt lat="46.75535" lon="-1.85788">
        <ele>19</ele>
        <time>2024-12-16T18:42:09Z</time>
      </trkpt>
      <trkpt lat="46.75502" lon="-1.85914">
        <ele>18</ele>
        <time>2024-12-16T18:42:26Z</time>
      </trkpt>
      <trkpt lat="46.75485" lon="-1.85986">
        <ele>18</ele>
        <time>2024-12-16T18:42:35Z</time>
      </trkpt>
      <trkpt lat="46.75476" lon="-1.86042">
        <ele>17</ele>
        <time>2024-12-16T18:42:42Z</time>
      </trkpt>
      <trkpt lat="46.75464" lon="-1.86132">
        <ele>17</ele>
        <time>2024-12-16T18:42:53Z</time>
      </trkpt>
      <trkpt lat="46.75451" lon="-1.86224">
        <ele>17</ele>
        <time>2024-12-16T18:43:05Z</time>
      </trkpt>
      <trkpt lat="46.7545" lon="-1.86231">
        <ele>17</ele>
        <time>2024-12-16T18:43:06Z</time>
      </trkpt>
      <trkpt lat="46.75438" lon="-1.86312">
        <ele>17</ele>
        <time>2024-12-16T18:43:16Z</time>
      </trkpt>
      <trkpt lat="46.75433" lon="-1.86338">
        <ele>17</ele>
        <time>2024-12-16T18:43:19Z</time>
      </trkpt>
      <trkpt lat="46.75413" lon="-1.86405">
        <ele>16</ele>
        <time>2024-12-16T18:43:28Z</time>
      </trkpt>
      <trkpt lat="46.75392" lon="-1.86456">
        <ele>17</ele>
        <time>2024-12-16T18:43:35Z</time>
      </trkpt>
      <trkpt lat="46.75375" lon="-1.86489">
        <ele>18</ele>
        <time>2024-12-16T18:43:40Z</time>
      </trkpt>
      <trkpt lat="46.75333" lon="-1.86562">
        <ele>18</ele>
        <time>2024-12-16T18:43:52Z</time>
      </trkpt>
      <trkpt lat="46.75305" lon="-1.86615">
        <ele>18</ele>
        <time>2024-12-16T18:44:00Z</time>
      </trkpt>
      <trkpt lat="46.75285" lon="-1.86664">
        <ele>18</ele>
        <time>2024-12-16T18:44:07Z</time>
      </trkpt>
      <trkpt lat="46.75244" lon="-1.86771">
        <ele>17</ele>
        <time>2024-12-16T18:44:22Z</time>
      </trkpt>
      <trkpt lat="46.75231" lon="-1.86808">
        <ele>18</ele>
        <time>2024-12-16T18:44:27Z</time>
      </trkpt>
      <trkpt lat="46.75214" lon="-1.86862">
        <ele>18</ele>
        <time>2024-12-16T18:44:34Z</time>
      </trkpt>
      <trkpt lat="46.7519" lon="-1.86945">
        <ele>17</ele>
        <time>2024-12-16T18:44:45Z</time>
      </trkpt>
      <trkpt lat="46.75178" lon="-1.86986">
        <ele>17</ele>
        <time>2024-12-16T18:44:51Z</time>
      </trkpt>
      <trkpt lat="46.75174" lon="-1.8701">
        <ele>17</ele>
        <time>2024-12-16T18:44:54Z</time>
      </trkpt>
      <trkpt lat="46.75173" lon="-1.87015">
        <ele>17</ele>
        <time>2024-12-16T18:44:54Z</time>
      </trkpt>
      <trkpt lat="46.75177" lon="-1.87024">
        <ele>17</ele>
        <time>2024-12-16T18:44:56Z</time>
      </trkpt>
      <trkpt lat="46.75178" lon="-1.87033">
        <ele>17</ele>
        <time>2024-12-16T18:44:57Z</time>
      </trkpt>
      <trkpt lat="46.75178" lon="-1.87042">
        <ele>17</ele>
        <time>2024-12-16T18:44:58Z</time>
      </trkpt>
      <trkpt lat="46.75176" lon="-1.87051">
        <ele>17</ele>
        <time>2024-12-16T18:44:59Z</time>
      </trkpt>
      <trkpt lat="46.75172" lon="-1.87059">
        <ele>17</ele>
        <time>2024-12-16T18:45:00Z</time>
      </trkpt>
      <trkpt lat="46.75167" lon="-1.87063">
        <ele>17</ele>
        <time>2024-12-16T18:45:01Z</time>
      </trkpt>
      <trkpt lat="46.75163" lon="-1.87066">
        <ele>17</ele>
        <time>2024-12-16T18:45:02Z</time>
      </trkpt>
      <trkpt lat="46.75147" lon="-1.87118">
        <ele>17</ele>
        <time>2024-12-16T18:45:09Z</time>
      </trkpt>
      <trkpt lat="46.75147" lon="-1.87119">
        <ele>17</ele>
        <time>2024-12-16T18:45:09Z</time>
      </trkpt>
      <trkpt lat="46.75134" lon="-1.8719">
        <ele>16</ele>
        <time>2024-12-16T18:45:18Z</time>
      </trkpt>
      <trkpt lat="46.7513" lon="-1.8723">
        <ele>15</ele>
        <time>2024-12-16T18:45:23Z</time>
      </trkpt>
      <trkpt lat="46.75129" lon="-1.87256">
        <ele>15</ele>
        <time>2024-12-16T18:45:26Z</time>
      </trkpt>
      <trkpt lat="46.75131" lon="-1.87312">
        <ele>14</ele>
        <time>2024-12-16T18:45:33Z</time>
      </trkpt>
      <trkpt lat="46.75138" lon="-1.87393">
        <ele>13</ele>
        <time>2024-12-16T18:45:43Z</time>
      </trkpt>
      <trkpt lat="46.75144" lon="-1.87465">
        <ele>13</ele>
        <time>2024-12-16T18:45:52Z</time>
      </trkpt>
      <trkpt lat="46.75147" lon="-1.87607">
        <ele>12</ele>
        <time>2024-12-16T18:46:09Z</time>
      </trkpt>
      <trkpt lat="46.75146" lon="-1.87663">
        <ele>11</ele>
        <time>2024-12-16T18:46:16Z</time>
      </trkpt>
      <trkpt lat="46.75143" lon="-1.87728">
        <ele>11</ele>
        <time>2024-12-16T18:46:24Z</time>
      </trkpt>
      <trkpt lat="46.75136" lon="-1.87834">
        <ele>11</ele>
        <time>2024-12-16T18:46:37Z</time>
      </trkpt>
      <trkpt lat="46.75132" lon="-1.87872">
        <ele>11</ele>
        <time>2024-12-16T18:46:41Z</time>
      </trkpt>
      <trkpt lat="46.75117" lon="-1.87961">
        <ele>11</ele>
        <time>2024-12-16T18:46:53Z</time>
      </trkpt>
      <trkpt lat="46.75105" lon="-1.87998">
        <ele>10</ele>
        <time>2024-12-16T18:46:58Z</time>
      </trkpt>
      <trkpt lat="46.75093" lon="-1.88019">
        <ele>9</ele>
        <time>2024-12-16T18:47:01Z</time>
      </trkpt>
      <trkpt lat="46.75033" lon="-1.88098">
        <ele>9</ele>
        <time>2024-12-16T18:47:15Z</time>
      </trkpt>
      <trkpt lat="46.75024" lon="-1.8811">
        <ele>9</ele>
        <time>2024-12-16T18:47:18Z</time>
      </trkpt>
      <trkpt lat="46.7502" lon="-1.88115">
        <ele>9</ele>
        <time>2024-12-16T18:47:18Z</time>
      </trkpt>
      <trkpt lat="46.74985" lon="-1.88162">
        <ele>9</ele>
        <time>2024-12-16T18:47:27Z</time>
      </trkpt>
      <trkpt lat="46.74959" lon="-1.88202">
        <ele>11</ele>
        <time>2024-12-16T18:47:34Z</time>
      </trkpt>
      <trkpt lat="46.74942" lon="-1.88238">
        <ele>12</ele>
        <time>2024-12-16T18:47:39Z</time>
      </trkpt>
      <trkpt lat="46.74933" lon="-1.88263">
        <ele>13</ele>
        <time>2024-12-16T18:47:42Z</time>
      </trkpt>
      <trkpt lat="46.74914" lon="-1.8833">
        <ele>13</ele>
        <time>2024-12-16T18:47:51Z</time>
      </trkpt>
      <trkpt lat="46.74881" lon="-1.88456">
        <ele>11</ele>
        <time>2024-12-16T18:48:08Z</time>
      </trkpt>
      <trkpt lat="46.74854" lon="-1.88563">
        <ele>11</ele>
        <time>2024-12-16T18:48:22Z</time>
      </trkpt>
      <trkpt lat="46.74845" lon="-1.88622">
        <ele>12</ele>
        <time>2024-12-16T18:48:29Z</time>
      </trkpt>
      <trkpt lat="46.74832" lon="-1.88755">
        <ele>12</ele>
        <time>2024-12-16T18:48:45Z</time>
      </trkpt>
      <trkpt lat="46.74827" lon="-1.88821">
        <ele>12</ele>
        <time>2024-12-16T18:48:53Z</time>
      </trkpt>
      <trkpt lat="46.74822" lon="-1.89029">
        <ele>11</ele>
        <time>2024-12-16T18:49:19Z</time>
      </trkpt>
      <trkpt lat="46.74825" lon="-1.89109">
        <ele>11</ele>
        <time>2024-12-16T18:49:29Z</time>
      </trkpt>
      <trkpt lat="46.74825" lon="-1.89116">
        <ele>11</ele>
        <time>2024-12-16T18:49:29Z</time>
      </trkpt>
      <trkpt lat="46.74826" lon="-1.89122">
        <ele>11</ele>
        <time>2024-12-16T18:49:30Z</time>
      </trkpt>
      <trkpt lat="46.7484" lon="-1.89331">
        <ele>8</ele>
        <time>2024-12-16T18:49:56Z</time>
      </trkpt>
      <trkpt lat="46.74841" lon="-1.89426">
        <ele>8</ele>
        <time>2024-12-16T18:50:07Z</time>
      </trkpt>
      <trkpt lat="46.74841" lon="-1.89469">
        <ele>8</ele>
        <time>2024-12-16T18:50:13Z</time>
      </trkpt>
      <trkpt lat="46.74841" lon="-1.89512">
        <ele>8</ele>
        <time>2024-12-16T18:50:18Z</time>
      </trkpt>
      <trkpt lat="46.74842" lon="-1.89576">
        <ele>8</ele>
        <time>2024-12-16T18:50:26Z</time>
      </trkpt>
      <trkpt lat="46.74841" lon="-1.89635">
        <ele>9</ele>
        <time>2024-12-16T18:50:33Z</time>
      </trkpt>
      <trkpt lat="46.74841" lon="-1.89715">
        <ele>8</ele>
        <time>2024-12-16T18:50:43Z</time>
      </trkpt>
      <trkpt lat="46.74841" lon="-1.89725">
        <ele>8</ele>
        <time>2024-12-16T18:50:44Z</time>
      </trkpt>
      <trkpt lat="46.74842" lon="-1.89774">
        <ele>7</ele>
        <time>2024-12-16T18:50:50Z</time>
      </trkpt>
      <trkpt lat="46.74846" lon="-1.89824">
        <ele>7</ele>
        <time>2024-12-16T18:50:56Z</time>
      </trkpt>
      <trkpt lat="46.74849" lon="-1.89855">
        <ele>7</ele>
        <time>2024-12-16T18:51:00Z</time>
      </trkpt>
      <trkpt lat="46.74851" lon="-1.89899">
        <ele>6</ele>
        <time>2024-12-16T18:51:05Z</time>
      </trkpt>
      <trkpt lat="46.74849" lon="-1.8993">
        <ele>6</ele>
        <time>2024-12-16T18:51:09Z</time>
      </trkpt>
      <trkpt lat="46.74851" lon="-1.90021">
        <ele>6</ele>
        <time>2024-12-16T18:51:20Z</time>
      </trkpt>
      <trkpt lat="46.74853" lon="-1.90117">
        <ele>6</ele>
        <time>2024-12-16T18:51:32Z</time>
      </trkpt>
      <trkpt lat="46.74853" lon="-1.90129">
        <ele>6</ele>
        <time>2024-12-16T18:51:33Z</time>
      </trkpt>
      <trkpt lat="46.74855" lon="-1.9018">
        <ele>6</ele>
        <time>2024-12-16T18:51:39Z</time>
      </trkpt>
      <trkpt lat="46.74854" lon="-1.90196">
        <ele>6</ele>
        <time>2024-12-16T18:51:41Z</time>
      </trkpt>
      <trkpt lat="46.74854" lon="-1.90225">
        <ele>6</ele>
        <time>2024-12-16T18:51:45Z</time>
      </trkpt>
      <trkpt lat="46.74852" lon="-1.90258">
        <ele>6</ele>
        <time>2024-12-16T18:51:49Z</time>
      </trkpt>
      <trkpt lat="46.74848" lon="-1.90316">
        <ele>5</ele>
        <time>2024-12-16T18:51:56Z</time>
      </trkpt>
      <trkpt lat="46.74846" lon="-1.90326">
        <ele>5</ele>
        <time>2024-12-16T18:51:57Z</time>
      </trkpt>
      <trkpt lat="46.74843" lon="-1.90345">
        <ele>5</ele>
        <time>2024-12-16T18:52:00Z</time>
      </trkpt>
      <trkpt lat="46.74838" lon="-1.90367">
        <ele>5</ele>
        <time>2024-12-16T18:52:03Z</time>
      </trkpt>
      <trkpt lat="46.74839" lon="-1.9039">
        <ele>4</ele>
        <time>2024-12-16T18:52:05Z</time>
      </trkpt>
      <trkpt lat="46.74841" lon="-1.90394">
        <ele>4</ele>
        <time>2024-12-16T18:52:06Z</time>
      </trkpt>
      <trkpt lat="46.74842" lon="-1.90399">
        <ele>4</ele>
        <time>2024-12-16T18:52:07Z</time>
      </trkpt>
      <trkpt lat="46.74838" lon="-1.90407">
        <ele>4</ele>
        <time>2024-12-16T18:52:08Z</time>
      </trkpt>
      <trkpt lat="46.74845" lon="-1.90406">
        <ele>4</ele>
        <time>2024-12-16T18:52:09Z</time>
      </trkpt>
      <trkpt lat="46.74838" lon="-1.90407">
        <ele>4</ele>
        <time>2024-12-16T18:52:10Z</time>
      </trkpt>
      <trkpt lat="46.74837" lon="-1.90409">
        <ele>4</ele>
        <time>2024-12-16T18:52:11Z</time>
      </trkpt>
      <trkpt lat="46.74832" lon="-1.90409">
        <ele>4</ele>
        <time>2024-12-16T18:52:11Z</time>
      </trkpt>
      <trkpt lat="46.74814" lon="-1.90413">
        <ele>4</ele>
        <time>2024-12-16T18:52:15Z</time>
      </trkpt>
      <trkpt lat="46.74814" lon="-1.90413">
        <ele>4</ele>
        <time>2024-12-16T18:52:15Z</time>
      </trkpt>
      <trkpt lat="46.7478" lon="-1.9044">
        <ele>4</ele>
        <time>2024-12-16T18:52:22Z</time>
      </trkpt>
      <trkpt lat="46.74759" lon="-1.90457">
        <ele>4</ele>
        <time>2024-12-16T18:52:26Z</time>
      </trkpt>
      <trkpt lat="46.7473" lon="-1.90478">
        <ele>4</ele>
        <time>2024-12-16T18:52:32Z</time>
      </trkpt>
      <trkpt lat="46.74705" lon="-1.90498">
        <ele>4</ele>
        <time>2024-12-16T18:52:37Z</time>
      </trkpt>
      <trkpt lat="46.74676" lon="-1.90521">
        <ele>3</ele>
        <time>2024-12-16T18:52:43Z</time>
      </trkpt>
      <trkpt lat="46.74651" lon="-1.90544">
        <ele>2</ele>
        <time>2024-12-16T18:52:48Z</time>
      </trkpt>
      <trkpt lat="46.74619" lon="-1.90573">
        <ele>2</ele>
        <time>2024-12-16T18:52:55Z</time>
      </trkpt>
      <trkpt lat="46.74618" lon="-1.90574">
        <ele>2</ele>
        <time>2024-12-16T18:52:55Z</time>
      </trkpt>
      <trkpt lat="46.74603" lon="-1.90587">
        <ele>2</ele>
        <time>2024-12-16T18:52:58Z</time>
      </trkpt>
      <trkpt lat="46.74592" lon="-1.90595">
        <ele>2</ele>
        <time>2024-12-16T18:53:00Z</time>
      </trkpt>
      <trkpt lat="46.74588" lon="-1.90599">
        <ele>2</ele>
        <time>2024-12-16T18:53:01Z</time>
      </trkpt>
      <trkpt lat="46.74565" lon="-1.90617">
        <ele>3</ele>
        <time>2024-12-16T18:53:06Z</time>
      </trkpt>
      <trkpt lat="46.74544" lon="-1.90635">
        <ele>4</ele>
        <time>2024-12-16T18:53:10Z</time>
      </trkpt>
      <trkpt lat="46.74542" lon="-1.90636">
        <ele>4</ele>
        <time>2024-12-16T18:53:10Z</time>
      </trkpt>
      <trkpt lat="46.74539" lon="-1.90639">
        <ele>4</ele>
        <time>2024-12-16T18:53:11Z</time>
      </trkpt>
      <trkpt lat="46.74538" lon="-1.90643">
        <ele>4</ele>
        <time>2024-12-16T18:53:11Z</time>
      </trkpt>
      <trkpt lat="46.74533" lon="-1.90646">
        <ele>4</ele>
        <time>2024-12-16T18:53:12Z</time>
      </trkpt>
      <trkpt lat="46.74528" lon="-1.90653">
        <ele>4</ele>
        <time>2024-12-16T18:53:14Z</time>
      </trkpt>
      <trkpt lat="46.74528" lon="-1.90659">
        <ele>4</ele>
        <time>2024-12-16T18:53:14Z</time>
      </trkpt>
      <trkpt lat="46.74529" lon="-1.90663">
        <ele>4</ele>
        <time>2024-12-16T18:53:15Z</time>
      </trkpt>
      <trkpt lat="46.74559" lon="-1.90724">
        <ele>4</ele>
        <time>2024-12-16T18:53:24Z</time>
      </trkpt>
      <trkpt lat="46.74563" lon="-1.90734">
        <ele>4</ele>
        <time>2024-12-16T18:53:25Z</time>
      </trkpt>
      <trkpt lat="46.74566" lon="-1.90748">
        <ele>4</ele>
        <time>2024-12-16T18:53:27Z</time>
      </trkpt>
      <trkpt lat="46.74569" lon="-1.90793">
        <ele>4</ele>
        <time>2024-12-16T18:53:33Z</time>
      </trkpt>
      <trkpt lat="46.7457" lon="-1.908">
        <ele>4</ele>
        <time>2024-12-16T18:53:34Z</time>
      </trkpt>
      <trkpt lat="46.74571" lon="-1.90846">
        <ele>4</ele>
        <time>2024-12-16T18:53:39Z</time>
      </trkpt>
      <trkpt lat="46.74571" lon="-1.90872">
        <ele>4</ele>
        <time>2024-12-16T18:53:42Z</time>
      </trkpt>
      <trkpt lat="46.74575" lon="-1.90903">
        <ele>3</ele>
        <time>2024-12-16T18:53:46Z</time>
      </trkpt>
      <trkpt lat="46.74589" lon="-1.90941">
        <ele>3</ele>
        <time>2024-12-16T18:53:52Z</time>
      </trkpt>
      <trkpt lat="46.74596" lon="-1.90959">
        <ele>3</ele>
        <time>2024-12-16T18:53:54Z</time>
      </trkpt>
      <trkpt lat="46.74599" lon="-1.90976">
        <ele>3</ele>
        <time>2024-12-16T18:53:56Z</time>
      </trkpt>
      <trkpt lat="46.746" lon="-1.90985">
        <ele>3</ele>
        <time>2024-12-16T18:53:57Z</time>
      </trkpt>
      <trkpt lat="46.74597" lon="-1.91009">
        <ele>3</ele>
        <time>2024-12-16T18:54:00Z</time>
      </trkpt>
      <trkpt lat="46.74593" lon="-1.91021">
        <ele>3</ele>
        <time>2024-12-16T18:54:02Z</time>
      </trkpt>
      <trkpt lat="46.74591" lon="-1.9103">
        <ele>3</ele>
        <time>2024-12-16T18:54:03Z</time>
      </trkpt>
      <trkpt lat="46.74592" lon="-1.91038">
        <ele>2</ele>
        <time>2024-12-16T18:54:04Z</time>
      </trkpt>
      <trkpt lat="46.74589" lon="-1.91044">
        <ele>2</ele>
        <time>2024-12-16T18:54:05Z</time>
      </trkpt>
      <trkpt lat="46.74583" lon="-1.91048">
        <ele>2</ele>
        <time>2024-12-16T18:54:06Z</time>
      </trkpt>
      <trkpt lat="46.74578" lon="-1.91057">
        <ele>2</ele>
        <time>2024-12-16T18:54:08Z</time>
      </trkpt>
      <trkpt lat="46.74575" lon="-1.91061">
        <ele>2</ele>
        <time>2024-12-16T18:54:08Z</time>
      </trkpt>
      <trkpt lat="46.74531" lon="-1.91117">
        <ele>3</ele>
        <time>2024-12-16T18:54:19Z</time>
      </trkpt>
      <trkpt lat="46.74483" lon="-1.91177">
        <ele>4</ele>
        <time>2024-12-16T18:54:30Z</time>
      </trkpt>
      <trkpt lat="46.74477" lon="-1.91184">
        <ele>4</ele>
        <time>2024-12-16T18:54:31Z</time>
      </trkpt>
      <trkpt lat="46.74465" lon="-1.91199">
        <ele>4</ele>
        <time>2024-12-16T18:54:34Z</time>
      </trkpt>
      <trkpt lat="46.74387" lon="-1.91293">
        <ele>3</ele>
        <time>2024-12-16T18:54:52Z</time>
      </trkpt>
      <trkpt lat="46.74358" lon="-1.91332">
        <ele>4</ele>
        <time>2024-12-16T18:54:59Z</time>
      </trkpt>
      <trkpt lat="46.74344" lon="-1.91359">
        <ele>4</ele>
        <time>2024-12-16T18:55:03Z</time>
      </trkpt>
      <trkpt lat="46.74328" lon="-1.91392">
        <ele>4</ele>
        <time>2024-12-16T18:55:08Z</time>
      </trkpt>
      <trkpt lat="46.74326" lon="-1.91397">
        <ele>4</ele>
        <time>2024-12-16T18:55:09Z</time>
      </trkpt>
      <trkpt lat="46.74323" lon="-1.91403">
        <ele>4</ele>
        <time>2024-12-16T18:55:10Z</time>
      </trkpt>
      <trkpt lat="46.74315" lon="-1.9142">
        <ele>4</ele>
        <time>2024-12-16T18:55:12Z</time>
      </trkpt>
      <trkpt lat="46.7431" lon="-1.9143">
        <ele>4</ele>
        <time>2024-12-16T18:55:14Z</time>
      </trkpt>
      <trkpt lat="46.74305" lon="-1.91441">
        <ele>4</ele>
        <time>2024-12-16T18:55:15Z</time>
      </trkpt>
      <trkpt lat="46.743" lon="-1.91451">
        <ele>4</ele>
        <time>2024-12-16T18:55:17Z</time>
      </trkpt>
      <trkpt lat="46.74289" lon="-1.91476">
        <ele>4</ele>
        <time>2024-12-16T18:55:21Z</time>
      </trkpt>
      <trkpt lat="46.7425" lon="-1.91561">
        <ele>4</ele>
        <time>2024-12-16T18:55:33Z</time>
      </trkpt>
      <trkpt lat="46.742" lon="-1.91664">
        <ele>4</ele>
        <time>2024-12-16T18:55:48Z</time>
      </trkpt>
      <trkpt lat="46.74183" lon="-1.91693">
        <ele>4</ele>
        <time>2024-12-16T18:55:53Z</time>
      </trkpt>
      <trkpt lat="46.74156" lon="-1.91738">
        <ele>4</ele>
        <time>2024-12-16T18:56:00Z</time>
      </trkpt>
      <trkpt lat="46.74154" lon="-1.91734">
        <ele>4</ele>
        <time>2024-12-16T18:56:01Z</time>
      </trkpt>
      <trkpt lat="46.7406" lon="-1.91882">
        <ele>4</ele>
        <time>2024-12-16T18:56:26Z</time>
      </trkpt>
      <trkpt lat="46.74053" lon="-1.91884">
        <ele>4</ele>
        <time>2024-12-16T18:56:27Z</time>
      </trkpt>
      <trkpt lat="46.7405" lon="-1.91887">
        <ele>4</ele>
        <time>2024-12-16T18:56:27Z</time>
      </trkpt>
      <trkpt lat="46.74056" lon="-1.91896">
        <ele>4</ele>
        <time>2024-12-16T18:56:29Z</time>
      </trkpt>
      <trkpt lat="46.7402" lon="-1.91953">
        <ele>4</ele>
        <time>2024-12-16T18:56:38Z</time>
      </trkpt>
      <trkpt lat="46.74005" lon="-1.91983">
        <ele>5</ele>
        <time>2024-12-16T18:56:43Z</time>
      </trkpt>
      <trkpt lat="46.73984" lon="-1.92042">
        <ele>4</ele>
        <time>2024-12-16T18:56:51Z</time>
      </trkpt>
      <trkpt lat="46.7398" lon="-1.9206">
        <ele>4</ele>
        <time>2024-12-16T18:56:53Z</time>
      </trkpt>
      <trkpt lat="46.73977" lon="-1.92081">
        <ele>4</ele>
        <time>2024-12-16T18:56:56Z</time>
      </trkpt>
      <trkpt lat="46.73976" lon="-1.92092">
        <ele>4</ele>
        <time>2024-12-16T18:56:57Z</time>
      </trkpt>
      <trkpt lat="46.73977" lon="-1.92112">
        <ele>4</ele>
        <time>2024-12-16T18:57:00Z</time>
      </trkpt>
      <trkpt lat="46.73975" lon="-1.92145">
        <ele>4</ele>
        <time>2024-12-16T18:57:04Z</time>
      </trkpt>
      <trkpt lat="46.73972" lon="-1.92169">
        <ele>4</ele>
        <time>2024-12-16T18:57:07Z</time>
      </trkpt>
      <trkpt lat="46.73938" lon="-1.92281">
        <ele>6</ele>
        <time>2024-12-16T18:57:22Z</time>
      </trkpt>
      <trkpt lat="46.73911" lon="-1.92371">
        <ele>9</ele>
        <time>2024-12-16T18:57:34Z</time>
      </trkpt>
      <trkpt lat="46.73844" lon="-1.92598">
        <ele>11</ele>
        <time>2024-12-16T18:58:04Z</time>
      </trkpt>
      <trkpt lat="46.73833" lon="-1.92633">
        <ele>11</ele>
        <time>2024-12-16T18:58:09Z</time>
      </trkpt>
      <trkpt lat="46.73822" lon="-1.9267">
        <ele>11</ele>
        <time>2024-12-16T18:58:13Z</time>
      </trkpt>
      <trkpt lat="46.73817" lon="-1.92695">
        <ele>11</ele>
        <time>2024-12-16T18:58:17Z</time>
      </trkpt>
      <trkpt lat="46.73816" lon="-1.92715">
        <ele>10</ele>
        <time>2024-12-16T18:58:19Z</time>
      </trkpt>
      <trkpt lat="46.7382" lon="-1.92797">
        <ele>10</ele>
        <time>2024-12-16T18:58:29Z</time>
      </trkpt>
      <trkpt lat="46.73821" lon="-1.92806">
        <ele>10</ele>
        <time>2024-12-16T18:58:30Z</time>
      </trkpt>
      <trkpt lat="46.73835" lon="-1.93081">
        <ele>9</ele>
        <time>2024-12-16T18:59:04Z</time>
      </trkpt>
      <trkpt lat="46.73849" lon="-1.93335">
        <ele>11</ele>
        <time>2024-12-16T18:59:35Z</time>
      </trkpt>
      <trkpt lat="46.73853" lon="-1.93378">
        <ele>12</ele>
        <time>2024-12-16T18:59:40Z</time>
      </trkpt>
      <trkpt lat="46.73869" lon="-1.93487">
        <ele>13</ele>
        <time>2024-12-16T18:59:54Z</time>
      </trkpt>
      <trkpt lat="46.73871" lon="-1.93501">
        <ele>13</ele>
        <time>2024-12-16T18:59:56Z</time>
      </trkpt>
      <trkpt lat="46.73874" lon="-1.93522">
        <ele>13</ele>
        <time>2024-12-16T18:59:58Z</time>
      </trkpt>
      <trkpt lat="46.73876" lon="-1.93536">
        <ele>13</ele>
        <time>2024-12-16T19:00:00Z</time>
      </trkpt>
      <trkpt lat="46.73874" lon="-1.93522">
        <ele>13</ele>
        <time>2024-12-16T19:00:02Z</time>
      </trkpt>
      <trkpt lat="46.73871" lon="-1.93501">
        <ele>13</ele>
        <time>2024-12-16T19:00:04Z</time>
      </trkpt>
      <trkpt lat="46.73868" lon="-1.93501">
        <ele>13</ele>
        <time>2024-12-16T19:00:05Z</time>
      </trkpt>
      <trkpt lat="46.73861" lon="-1.93496">
        <ele>13</ele>
        <time>2024-12-16T19:00:06Z</time>
      </trkpt>
      <trkpt lat="46.73864" lon="-1.93509">
        <ele>13</ele>
        <time>2024-12-16T19:00:08Z</time>
      </trkpt>
      <trkpt lat="46.73869" lon="-1.93517">
        <ele>13</ele>
        <time>2024-12-16T19:00:09Z</time>
      </trkpt>
      <trkpt lat="46.73874" lon="-1.93534">
        <ele>13</ele>
        <time>2024-12-16T19:00:11Z</time>
      </trkpt>
      <trkpt lat="46.73919" lon="-1.9385">
        <ele>12</ele>
        <time>2024-12-16T19:00:51Z</time>
      </trkpt>
      <trkpt lat="46.73934" lon="-1.93955">
        <ele>12</ele>
        <time>2024-12-16T19:01:04Z</time>
      </trkpt>
      <trkpt lat="46.73938" lon="-1.93953">
        <ele>12</ele>
        <time>2024-12-16T19:01:05Z</time>
      </trkpt>
      <trkpt lat="46.73942" lon="-1.9398">
        <ele>12</ele>
        <time>2024-12-16T19:01:08Z</time>
      </trkpt>
      <trkpt lat="46.73957" lon="-1.94077">
        <ele>12</ele>
        <time>2024-12-16T19:01:20Z</time>
      </trkpt>
      <trkpt lat="46.73962" lon="-1.94114">
        <ele>13</ele>
        <time>2024-12-16T19:01:25Z</time>
      </trkpt>
      <trkpt lat="46.73963" lon="-1.9414">
        <ele>13</ele>
        <time>2024-12-16T19:01:28Z</time>
      </trkpt>
      <trkpt lat="46.73961" lon="-1.94167">
        <ele>13</ele>
        <time>2024-12-16T19:01:31Z</time>
      </trkpt>
      <trkpt lat="46.73955" lon="-1.94197">
        <ele>13</ele>
        <time>2024-12-16T19:01:35Z</time>
      </trkpt>
      <trkpt lat="46.73945" lon="-1.94234">
        <ele>13</ele>
        <time>2024-12-16T19:01:40Z</time>
      </trkpt>
      <trkpt lat="46.73915" lon="-1.94341">
        <ele>12</ele>
        <time>2024-12-16T19:01:54Z</time>
      </trkpt>
      <trkpt lat="46.7391" lon="-1.94339">
        <ele>12</ele>
        <time>2024-12-16T19:01:55Z</time>
      </trkpt>
      <trkpt lat="46.73893" lon="-1.94404">
        <ele>11</ele>
        <time>2024-12-16T19:02:03Z</time>
      </trkpt>
      <trkpt lat="46.73885" lon="-1.94427">
        <ele>10</ele>
        <time>2024-12-16T19:02:07Z</time>
      </trkpt>
      <trkpt lat="46.7387" lon="-1.94458">
        <ele>9</ele>
        <time>2024-12-16T19:02:11Z</time>
      </trkpt>
      <trkpt lat="46.73851" lon="-1.94487">
        <ele>7</ele>
        <time>2024-12-16T19:02:16Z</time>
      </trkpt>
      <trkpt lat="46.73854" lon="-1.94491">
        <ele>7</ele>
        <time>2024-12-16T19:02:17Z</time>
      </trkpt>
      <trkpt lat="46.73831" lon="-1.94522">
        <ele>7</ele>
        <time>2024-12-16T19:02:22Z</time>
      </trkpt>
      <trkpt lat="46.73808" lon="-1.94553">
        <ele>7</ele>
        <time>2024-12-16T19:02:28Z</time>
      </trkpt>
      <trkpt lat="46.73785" lon="-1.94585">
        <ele>6</ele>
        <time>2024-12-16T19:02:34Z</time>
      </trkpt>
      <trkpt lat="46.73761" lon="-1.94621">
        <ele>6</ele>
        <time>2024-12-16T19:02:40Z</time>
      </trkpt>
      <trkpt lat="46.73741" lon="-1.94648">
        <ele>6</ele>
        <time>2024-12-16T19:02:45Z</time>
      </trkpt>
      <trkpt lat="46.73635" lon="-1.94794">
        <ele>6</ele>
        <time>2024-12-16T19:03:10Z</time>
      </trkpt>
      <trkpt lat="46.73629" lon="-1.94803">
        <ele>7</ele>
        <time>2024-12-16T19:03:12Z</time>
      </trkpt>
      <trkpt lat="46.73596" lon="-1.94852">
        <ele>7</ele>
        <time>2024-12-16T19:03:20Z</time>
      </trkpt>
      <trkpt lat="46.7359" lon="-1.94861">
        <ele>7</ele>
        <time>2024-12-16T19:03:22Z</time>
      </trkpt>
      <trkpt lat="46.73566" lon="-1.94898">
        <ele>7</ele>
        <time>2024-12-16T19:03:28Z</time>
      </trkpt>
      <trkpt lat="46.73536" lon="-1.94948">
        <ele>6</ele>
        <time>2024-12-16T19:03:36Z</time>
      </trkpt>
      <trkpt lat="46.73504" lon="-1.95027">
        <ele>5</ele>
        <time>2024-12-16T19:03:47Z</time>
      </trkpt>
      <trkpt lat="46.73496" lon="-1.95049">
        <ele>4</ele>
        <time>2024-12-16T19:03:50Z</time>
      </trkpt>
      <trkpt lat="46.7349" lon="-1.95056">
        <ele>4</ele>
        <time>2024-12-16T19:03:52Z</time>
      </trkpt>
      <trkpt lat="46.73495" lon="-1.95061">
        <ele>4</ele>
        <time>2024-12-16T19:03:53Z</time>
      </trkpt>
      <trkpt lat="46.73502" lon="-1.95067">
        <ele>4</ele>
        <time>2024-12-16T19:03:54Z</time>
      </trkpt>
      <trkpt lat="46.73515" lon="-1.95079">
        <ele>4</ele>
        <time>2024-12-16T19:03:57Z</time>
      </trkpt>
      <trkpt lat="46.73546" lon="-1.9509">
        <ele>3</ele>
        <time>2024-12-16T19:04:03Z</time>
      </trkpt>
      <trkpt lat="46.73574" lon="-1.95106">
        <ele>2</ele>
        <time>2024-12-16T19:04:08Z</time>
      </trkpt>
      <trkpt lat="46.73657" lon="-1.95157">
        <ele>3</ele>
        <time>2024-12-16T19:04:24Z</time>
      </trkpt>
      <trkpt lat="46.73743" lon="-1.95205">
        <ele>4</ele>
        <time>2024-12-16T19:04:41Z</time>
      </trkpt>
      <trkpt lat="46.73779" lon="-1.95225">
        <ele>4</ele>
        <time>2024-12-16T19:04:47Z</time>
      </trkpt>
      <trkpt lat="46.73948" lon="-1.95297">
        <ele>4</ele>
        <time>2024-12-16T19:05:19Z</time>
      </trkpt>
      <trkpt lat="46.73989" lon="-1.95314">
        <ele>5</ele>
        <time>2024-12-16T19:05:26Z</time>
      </trkpt>
      <trkpt lat="46.74086" lon="-1.95387">
        <ele>4</ele>
        <time>2024-12-16T19:05:46Z</time>
      </trkpt>
      <trkpt lat="46.74151" lon="-1.95427">
        <ele>2</ele>
        <time>2024-12-16T19:05:58Z</time>
      </trkpt>
      <trkpt lat="46.74173" lon="-1.95439">
        <ele>2</ele>
        <time>2024-12-16T19:06:02Z</time>
      </trkpt>
      <trkpt lat="46.74202" lon="-1.95453">
        <ele>2</ele>
        <time>2024-12-16T19:06:08Z</time>
      </trkpt>
      <trkpt lat="46.7423" lon="-1.95464">
        <ele>1</ele>
        <time>2024-12-16T19:06:13Z</time>
      </trkpt>
      <trkpt lat="46.74234" lon="-1.95465">
        <ele>1</ele>
        <time>2024-12-16T19:06:14Z</time>
      </trkpt>
      <trkpt lat="46.74285" lon="-1.9548">
        <ele>1</ele>
        <time>2024-12-16T19:06:23Z</time>
      </trkpt>
      <trkpt lat="46.74382" lon="-1.955">
        <ele>2</ele>
        <time>2024-12-16T19:06:40Z</time>
      </trkpt>
      <trkpt lat="46.74427" lon="-1.95511">
        <ele>2</ele>
        <time>2024-12-16T19:06:49Z</time>
      </trkpt>
      <trkpt lat="46.74432" lon="-1.95513">
        <ele>2</ele>
        <time>2024-12-16T19:06:49Z</time>
      </trkpt>
      <trkpt lat="46.74436" lon="-1.95514">
        <ele>2</ele>
        <time>2024-12-16T19:06:50Z</time>
      </trkpt>
      <trkpt lat="46.74449" lon="-1.95517">
        <ele>2</ele>
        <time>2024-12-16T19:06:53Z</time>
      </trkpt>
      <trkpt lat="46.74452" lon="-1.95515">
        <ele>2</ele>
        <time>2024-12-16T19:06:53Z</time>
      </trkpt>
      <trkpt lat="46.74455" lon="-1.95514">
        <ele>2</ele>
        <time>2024-12-16T19:06:54Z</time>
      </trkpt>
      <trkpt lat="46.7446" lon="-1.95516">
        <ele>1</ele>
        <time>2024-12-16T19:06:55Z</time>
      </trkpt>
      <trkpt lat="46.74465" lon="-1.9552">
        <ele>1</ele>
        <time>2024-12-16T19:06:56Z</time>
      </trkpt>
      <trkpt lat="46.74466" lon="-1.95517">
        <ele>1</ele>
        <time>2024-12-16T19:06:56Z</time>
      </trkpt>
      <trkpt lat="46.74465" lon="-1.9552">
        <ele>1</ele>
        <time>2024-12-16T19:06:56Z</time>
      </trkpt>
      <trkpt lat="46.74469" lon="-1.9553">
        <ele>1</ele>
        <time>2024-12-16T19:06:58Z</time>
      </trkpt>
      <trkpt lat="46.74468" lon="-1.9554">
        <ele>1</ele>
        <time>2024-12-16T19:06:59Z</time>
      </trkpt>
      <trkpt lat="46.74473" lon="-1.95541">
        <ele>1</ele>
        <time>2024-12-16T19:07:00Z</time>
      </trkpt>
      <trkpt lat="46.74498" lon="-1.95548">
        <ele>2</ele>
        <time>2024-12-16T19:07:04Z</time>
      </trkpt>
      <trkpt lat="46.7457" lon="-1.95564">
        <ele>3</ele>
        <time>2024-12-16T19:07:17Z</time>
      </trkpt>
      <trkpt lat="46.74601" lon="-1.95571">
        <ele>3</ele>
        <time>2024-12-16T19:07:23Z</time>
      </trkpt>
      <trkpt lat="46.74606" lon="-1.95572">
        <ele>3</ele>
        <time>2024-12-16T19:07:24Z</time>
      </trkpt>
      <trkpt lat="46.74638" lon="-1.95578">
        <ele>2</ele>
        <time>2024-12-16T19:07:30Z</time>
      </trkpt>
      <trkpt lat="46.74662" lon="-1.9558">
        <ele>2</ele>
        <time>2024-12-16T19:07:34Z</time>
      </trkpt>
      <trkpt lat="46.74708" lon="-1.95576">
        <ele>2</ele>
        <time>2024-12-16T19:07:42Z</time>
      </trkpt>
      <trkpt lat="46.74741" lon="-1.95574">
        <ele>1</ele>
        <time>2024-12-16T19:07:48Z</time>
      </trkpt>
      <trkpt lat="46.7477" lon="-1.95572">
        <ele>1</ele>
        <time>2024-12-16T19:07:53Z</time>
      </trkpt>
      <trkpt lat="46.74806" lon="-1.95576">
        <ele>2</ele>
        <time>2024-12-16T19:08:00Z</time>
      </trkpt>
      <trkpt lat="46.74835" lon="-1.95585">
        <ele>2</ele>
        <time>2024-12-16T19:08:05Z</time>
      </trkpt>
      <trkpt lat="46.74883" lon="-1.95607">
        <ele>1</ele>
        <time>2024-12-16T19:08:14Z</time>
      </trkpt>
      <trkpt lat="46.7506" lon="-1.95692">
        <ele>1</ele>
        <time>2024-12-16T19:08:47Z</time>
      </trkpt>
      <trkpt lat="46.75087" lon="-1.95702">
        <ele>2</ele>
        <time>2024-12-16T19:08:52Z</time>
      </trkpt>
      <trkpt lat="46.75115" lon="-1.95707">
        <ele>2</ele>
        <time>2024-12-16T19:08:57Z</time>
      </trkpt>
      <trkpt lat="46.75224" lon="-1.95711">
        <ele>1</ele>
        <time>2024-12-16T19:09:16Z</time>
      </trkpt>
      <trkpt lat="46.75255" lon="-1.95717">
        <ele>1</ele>
        <time>2024-12-16T19:09:22Z</time>
      </trkpt>
      <trkpt lat="46.7526" lon="-1.95719">
        <ele>1</ele>
        <time>2024-12-16T19:09:23Z</time>
      </trkpt>
      <trkpt lat="46.75298" lon="-1.95736">
        <ele>1</ele>
        <time>2024-12-16T19:09:30Z</time>
      </trkpt>
      <trkpt lat="46.75346" lon="-1.95762">
        <ele>1</ele>
        <time>2024-12-16T19:09:39Z</time>
      </trkpt>
      <trkpt lat="46.75416" lon="-1.95798">
        <ele>1</ele>
        <time>2024-12-16T19:09:52Z</time>
      </trkpt>
      <trkpt lat="46.75505" lon="-1.95844">
        <ele>3</ele>
        <time>2024-12-16T19:10:09Z</time>
      </trkpt>
      <trkpt lat="46.75528" lon="-1.95856">
        <ele>2</ele>
        <time>2024-12-16T19:10:13Z</time>
      </trkpt>
      <trkpt lat="46.75531" lon="-1.95858">
        <ele>2</ele>
        <time>2024-12-16T19:10:14Z</time>
      </trkpt>
      <trkpt lat="46.75653" lon="-1.95895">
        <ele>3</ele>
        <time>2024-12-16T19:10:36Z</time>
      </trkpt>
      <trkpt lat="46.75721" lon="-1.95912">
        <ele>2</ele>
        <time>2024-12-16T19:10:48Z</time>
      </trkpt>
      <trkpt lat="46.75777" lon="-1.95916">
        <ele>2</ele>
        <time>2024-12-16T19:10:58Z</time>
      </trkpt>
      <trkpt lat="46.75903" lon="-1.95923">
        <ele>3</ele>
        <time>2024-12-16T19:11:21Z</time>
      </trkpt>
      <trkpt lat="46.7592" lon="-1.95924">
        <ele>4</ele>
        <time>2024-12-16T19:11:24Z</time>
      </trkpt>
      <trkpt lat="46.76009" lon="-1.95931">
        <ele>5</ele>
        <time>2024-12-16T19:11:40Z</time>
      </trkpt>
      <trkpt lat="46.7603" lon="-1.95935">
        <ele>5</ele>
        <time>2024-12-16T19:11:43Z</time>
      </trkpt>
      <trkpt lat="46.7607" lon="-1.95948">
        <ele>4</ele>
        <time>2024-12-16T19:11:51Z</time>
      </trkpt>
      <trkpt lat="46.76092" lon="-1.95958">
        <ele>4</ele>
        <time>2024-12-16T19:11:55Z</time>
      </trkpt>
      <trkpt lat="46.76104" lon="-1.95963">
        <ele>3</ele>
        <time>2024-12-16T19:11:57Z</time>
      </trkpt>
      <trkpt lat="46.76221" lon="-1.96015">
        <ele>4</ele>
        <time>2024-12-16T19:12:19Z</time>
      </trkpt>
      <trkpt lat="46.76236" lon="-1.96023">
        <ele>4</ele>
        <time>2024-12-16T19:12:22Z</time>
      </trkpt>
      <trkpt lat="46.7632" lon="-1.96079">
        <ele>3</ele>
        <time>2024-12-16T19:12:38Z</time>
      </trkpt>
      <trkpt lat="46.76334" lon="-1.96085">
        <ele>3</ele>
        <time>2024-12-16T19:12:41Z</time>
      </trkpt>
      <trkpt lat="46.76383" lon="-1.96106">
        <ele>2</ele>
        <time>2024-12-16T19:12:50Z</time>
      </trkpt>
      <trkpt lat="46.76513" lon="-1.96151">
        <ele>3</ele>
        <time>2024-12-16T19:13:14Z</time>
      </trkpt>
      <trkpt lat="46.76547" lon="-1.96164">
        <ele>4</ele>
        <time>2024-12-16T19:13:20Z</time>
      </trkpt>
      <trkpt lat="46.76589" lon="-1.96179">
        <ele>5</ele>
        <time>2024-12-16T19:13:28Z</time>
      </trkpt>
      <trkpt lat="46.76725" lon="-1.96228">
        <ele>3</ele>
        <time>2024-12-16T19:13:52Z</time>
      </trkpt>
      <trkpt lat="46.76805" lon="-1.96258">
        <ele>3</ele>
        <time>2024-12-16T19:14:07Z</time>
      </trkpt>
      <trkpt lat="46.76852" lon="-1.96266">
        <ele>4</ele>
        <time>2024-12-16T19:14:16Z</time>
      </trkpt>
      <trkpt lat="46.76874" lon="-1.9627">
        <ele>4</ele>
        <time>2024-12-16T19:14:20Z</time>
      </trkpt>
      <trkpt lat="46.76909" lon="-1.96274">
        <ele>4</ele>
        <time>2024-12-16T19:14:26Z</time>
      </trkpt>
      <trkpt lat="46.76932" lon="-1.96278">
        <ele>3</ele>
        <time>2024-12-16T19:14:30Z</time>
      </trkpt>
      <trkpt lat="46.7696" lon="-1.96281">
        <ele>3</ele>
        <time>2024-12-16T19:14:35Z</time>
      </trkpt>
      <trkpt lat="46.77044" lon="-1.96293">
        <ele>4</ele>
        <time>2024-12-16T19:14:50Z</time>
      </trkpt>
      <trkpt lat="46.77126" lon="-1.96304">
        <ele>6</ele>
        <time>2024-12-16T19:15:05Z</time>
      </trkpt>
      <trkpt lat="46.7714" lon="-1.96309">
        <ele>6</ele>
        <time>2024-12-16T19:15:07Z</time>
      </trkpt>
      <trkpt lat="46.7715" lon="-1.96315">
        <ele>6</ele>
        <time>2024-12-16T19:15:09Z</time>
      </trkpt>
      <trkpt lat="46.77151" lon="-1.96316">
        <ele>6</ele>
        <time>2024-12-16T19:15:09Z</time>
      </trkpt>
      <trkpt lat="46.77153" lon="-1.96313">
        <ele>6</ele>
        <time>2024-12-16T19:15:10Z</time>
      </trkpt>
      <trkpt lat="46.77156" lon="-1.96308">
        <ele>6</ele>
        <time>2024-12-16T19:15:11Z</time>
      </trkpt>
      <trkpt lat="46.7716" lon="-1.96307">
        <ele>6</ele>
        <time>2024-12-16T19:15:11Z</time>
      </trkpt>
      <trkpt lat="46.77166" lon="-1.96309">
        <ele>6</ele>
        <time>2024-12-16T19:15:12Z</time>
      </trkpt>
      <trkpt lat="46.77169" lon="-1.96313">
        <ele>6</ele>
        <time>2024-12-16T19:15:13Z</time>
      </trkpt>
      <trkpt lat="46.7717" lon="-1.9632">
        <ele>7</ele>
        <time>2024-12-16T19:15:14Z</time>
      </trkpt>
      <trkpt lat="46.77171" lon="-1.96322">
        <ele>7</ele>
        <time>2024-12-16T19:15:14Z</time>
      </trkpt>
      <trkpt lat="46.77195" lon="-1.96331">
        <ele>6</ele>
        <time>2024-12-16T19:15:19Z</time>
      </trkpt>
      <trkpt lat="46.77216" lon="-1.96347">
        <ele>5</ele>
        <time>2024-12-16T19:15:23Z</time>
      </trkpt>
      <trkpt lat="46.77271" lon="-1.96397">
        <ele>5</ele>
        <time>2024-12-16T19:15:34Z</time>
      </trkpt>
      <trkpt lat="46.77269" lon="-1.96412">
        <ele>5</ele>
        <time>2024-12-16T19:15:36Z</time>
      </trkpt>
      <trkpt lat="46.77281" lon="-1.96423">
        <ele>5</ele>
        <time>2024-12-16T19:15:39Z</time>
      </trkpt>
      <trkpt lat="46.77286" lon="-1.96423">
        <ele>5</ele>
        <time>2024-12-16T19:15:40Z</time>
      </trkpt>
      <trkpt lat="46.77291" lon="-1.96417">
        <ele>5</ele>
        <time>2024-12-16T19:15:41Z</time>
      </trkpt>
      <trkpt lat="46.77365" lon="-1.96489">
        <ele>4</ele>
        <time>2024-12-16T19:15:57Z</time>
      </trkpt>
      <trkpt lat="46.77468" lon="-1.96589">
        <ele>6</ele>
        <time>2024-12-16T19:16:19Z</time>
      </trkpt>
      <trkpt lat="46.77542" lon="-1.9666">
        <ele>6</ele>
        <time>2024-12-16T19:16:34Z</time>
      </trkpt>
      <trkpt lat="46.77572" lon="-1.9669">
        <ele>5</ele>
        <time>2024-12-16T19:16:41Z</time>
      </trkpt>
      <trkpt lat="46.7766" lon="-1.96774">
        <ele>3</ele>
        <time>2024-12-16T19:17:00Z</time>
      </trkpt>
      <trkpt lat="46.77713" lon="-1.96822">
        <ele>3</ele>
        <time>2024-12-16T19:17:11Z</time>
      </trkpt>
      <trkpt lat="46.77748" lon="-1.9685">
        <ele>4</ele>
        <time>2024-12-16T19:17:18Z</time>
      </trkpt>
      <trkpt lat="46.77766" lon="-1.96861">
        <ele>4</ele>
        <time>2024-12-16T19:17:21Z</time>
      </trkpt>
      <trkpt lat="46.7781" lon="-1.96879">
        <ele>5</ele>
        <time>2024-12-16T19:17:29Z</time>
      </trkpt>
      <trkpt lat="46.77824" lon="-1.96885">
        <ele>5</ele>
        <time>2024-12-16T19:17:32Z</time>
      </trkpt>
      <trkpt lat="46.77855" lon="-1.96897">
        <ele>4</ele>
        <time>2024-12-16T19:17:38Z</time>
      </trkpt>
      <trkpt lat="46.77912" lon="-1.9692">
        <ele>3</ele>
        <time>2024-12-16T19:17:48Z</time>
      </trkpt>
      <trkpt lat="46.77934" lon="-1.96931">
        <ele>3</ele>
        <time>2024-12-16T19:17:52Z</time>
      </trkpt>
      <trkpt lat="46.77987" lon="-1.96959">
        <ele>4</ele>
        <time>2024-12-16T19:18:02Z</time>
      </trkpt>
      <trkpt lat="46.78074" lon="-1.97008">
        <ele>5</ele>
        <time>2024-12-16T19:18:19Z</time>
      </trkpt>
      <trkpt lat="46.78149" lon="-1.97048">
        <ele>4</ele>
        <time>2024-12-16T19:18:33Z</time>
      </trkpt>
      <trkpt lat="46.78174" lon="-1.97062">
        <ele>3</ele>
        <time>2024-12-16T19:18:38Z</time>
      </trkpt>
      <trkpt lat="46.78249" lon="-1.97103">
        <ele>3</ele>
        <time>2024-12-16T19:18:52Z</time>
      </trkpt>
      <trkpt lat="46.78291" lon="-1.97127">
        <ele>5</ele>
        <time>2024-12-16T19:19:00Z</time>
      </trkpt>
      <trkpt lat="46.78421" lon="-1.97199">
        <ele>5</ele>
        <time>2024-12-16T19:19:25Z</time>
      </trkpt>
      <trkpt lat="46.78424" lon="-1.972">
        <ele>5</ele>
        <time>2024-12-16T19:19:26Z</time>
      </trkpt>
      <trkpt lat="46.78521" lon="-1.97243">
        <ele>5</ele>
        <time>2024-12-16T19:19:44Z</time>
      </trkpt>
      <trkpt lat="46.78641" lon="-1.97288">
        <ele>3</ele>
        <time>2024-12-16T19:20:06Z</time>
      </trkpt>
      <trkpt lat="46.78709" lon="-1.97314">
        <ele>3</ele>
        <time>2024-12-16T19:20:18Z</time>
      </trkpt>
      <trkpt lat="46.7872" lon="-1.97318">
        <ele>3</ele>
        <time>2024-12-16T19:20:20Z</time>
      </trkpt>
      <trkpt lat="46.78761" lon="-1.97335">
        <ele>3</ele>
        <time>2024-12-16T19:20:28Z</time>
      </trkpt>
      <trkpt lat="46.78913" lon="-1.97392">
        <ele>2</ele>
        <time>2024-12-16T19:20:56Z</time>
      </trkpt>
      <trkpt lat="46.78954" lon="-1.97409">
        <ele>2</ele>
        <time>2024-12-16T19:21:03Z</time>
      </trkpt>
      <trkpt lat="46.78974" lon="-1.97421">
        <ele>2</ele>
        <time>2024-12-16T19:21:07Z</time>
      </trkpt>
      <trkpt lat="46.78993" lon="-1.97435">
        <ele>2</ele>
        <time>2024-12-16T19:21:11Z</time>
      </trkpt>
      <trkpt lat="46.79024" lon="-1.97468">
        <ele>1</ele>
        <time>2024-12-16T19:21:18Z</time>
      </trkpt>
      <trkpt lat="46.79038" lon="-1.97487">
        <ele>1</ele>
        <time>2024-12-16T19:21:21Z</time>
      </trkpt>
      <trkpt lat="46.79071" lon="-1.97547">
        <ele>1</ele>
        <time>2024-12-16T19:21:30Z</time>
      </trkpt>
      <trkpt lat="46.79076" lon="-1.97557">
        <ele>1</ele>
        <time>2024-12-16T19:21:32Z</time>
      </trkpt>
      <trkpt lat="46.79077" lon="-1.9756">
        <ele>1</ele>
        <time>2024-12-16T19:21:32Z</time>
      </trkpt>
      <trkpt lat="46.79185" lon="-1.97765">
        <ele>2</ele>
        <time>2024-12-16T19:22:04Z</time>
      </trkpt>
      <trkpt lat="46.79248" lon="-1.97885">
        <ele>1</ele>
        <time>2024-12-16T19:22:22Z</time>
      </trkpt>
      <trkpt lat="46.79269" lon="-1.9791">
        <ele>1</ele>
        <time>2024-12-16T19:22:27Z</time>
      </trkpt>
      <trkpt lat="46.79286" lon="-1.9792">
        <ele>1</ele>
        <time>2024-12-16T19:22:30Z</time>
      </trkpt>
      <trkpt lat="46.79292" lon="-1.97925">
        <ele>1</ele>
        <time>2024-12-16T19:22:32Z</time>
      </trkpt>
      <trkpt lat="46.79302" lon="-1.97926">
        <ele>1</ele>
        <time>2024-12-16T19:22:33Z</time>
      </trkpt>
      <trkpt lat="46.79341" lon="-1.97926">
        <ele>1</ele>
        <time>2024-12-16T19:22:40Z</time>
      </trkpt>
      <trkpt lat="46.79471" lon="-1.9791">
        <ele>1.8</ele>
        <time>2024-12-16T19:23:04Z</time>
      </trkpt>
      <trkpt lat="46.79571" lon="-1.97895">
        <ele>2</ele>
        <time>2024-12-16T19:23:21Z</time>
      </trkpt>
      <trkpt lat="46.79598" lon="-1.97888">
        <ele>2</ele>
        <time>2024-12-16T19:23:26Z</time>
      </trkpt>
      <trkpt lat="46.79746" lon="-1.9783">
        <ele>1</ele>
        <time>2024-12-16T19:23:54Z</time>
      </trkpt>
      <trkpt lat="46.79783" lon="-1.97822">
        <ele>1</ele>
        <time>2024-12-16T19:24:00Z</time>
      </trkpt>
      <trkpt lat="46.79817" lon="-1.97825">
        <ele>2</ele>
        <time>2024-12-16T19:24:06Z</time>
      </trkpt>
      <trkpt lat="46.79836" lon="-1.97832">
        <ele>2</ele>
        <time>2024-12-16T19:24:10Z</time>
      </trkpt>
      <trkpt lat="46.79857" lon="-1.97842">
        <ele>2</ele>
        <time>2024-12-16T19:24:14Z</time>
      </trkpt>
      <trkpt lat="46.79897" lon="-1.97866">
        <ele>2</ele>
        <time>2024-12-16T19:24:21Z</time>
      </trkpt>
      <trkpt lat="46.79934" lon="-1.97898">
        <ele>2</ele>
        <time>2024-12-16T19:24:29Z</time>
      </trkpt>
      <trkpt lat="46.79953" lon="-1.97917">
        <ele>2</ele>
        <time>2024-12-16T19:24:33Z</time>
      </trkpt>
      <trkpt lat="46.80009" lon="-1.97984">
        <ele>-1</ele>
        <time>2024-12-16T19:24:46Z</time>
      </trkpt>
      <trkpt lat="46.80029" lon="-1.98001">
        <ele>-1</ele>
        <time>2024-12-16T19:24:50Z</time>
      </trkpt>
      <trkpt lat="46.80042" lon="-1.98009">
        <ele>2.3</ele>
        <time>2024-12-16T19:24:53Z</time>
      </trkpt>
      <trkpt lat="46.80087" lon="-1.9803">
        <ele>2</ele>
        <time>2024-12-16T19:25:01Z</time>
      </trkpt>
      <trkpt lat="46.80131" lon="-1.98049">
        <ele>1</ele>
        <time>2024-12-16T19:25:09Z</time>
      </trkpt>
      <trkpt lat="46.80147" lon="-1.98055">
        <ele>1</ele>
        <time>2024-12-16T19:25:12Z</time>
      </trkpt>
      <trkpt lat="46.80224" lon="-1.98089">
        <ele>2</ele>
        <time>2024-12-16T19:25:26Z</time>
      </trkpt>
      <trkpt lat="46.8025" lon="-1.98102">
        <ele>2</ele>
        <time>2024-12-16T19:25:31Z</time>
      </trkpt>
      <trkpt lat="46.80266" lon="-1.98112">
        <ele>2</ele>
        <time>2024-12-16T19:25:34Z</time>
      </trkpt>
      <trkpt lat="46.80278" lon="-1.98124">
        <ele>2</ele>
        <time>2024-12-16T19:25:37Z</time>
      </trkpt>
      <trkpt lat="46.80308" lon="-1.98158">
        <ele>1</ele>
        <time>2024-12-16T19:25:44Z</time>
      </trkpt>
      <trkpt lat="46.80349" lon="-1.98205">
        <ele>2</ele>
        <time>2024-12-16T19:25:53Z</time>
      </trkpt>
      <trkpt lat="46.80368" lon="-1.98226">
        <ele>2</ele>
        <time>2024-12-16T19:25:57Z</time>
      </trkpt>
      <trkpt lat="46.80438" lon="-1.98308">
        <ele>2.8</ele>
        <time>2024-12-16T19:26:13Z</time>
      </trkpt>
      <trkpt lat="46.80448" lon="-1.98315">
        <ele>3.5</ele>
        <time>2024-12-16T19:26:15Z</time>
      </trkpt>
      <trkpt lat="46.80464" lon="-1.98323">
        <ele>4.2</ele>
        <time>2024-12-16T19:26:18Z</time>
      </trkpt>
      <trkpt lat="46.80468" lon="-1.98321">
        <ele>4.3</ele>
        <time>2024-12-16T19:26:19Z</time>
      </trkpt>
      <trkpt lat="46.80476" lon="-1.98322">
        <ele>4.2</ele>
        <time>2024-12-16T19:26:20Z</time>
      </trkpt>
      <trkpt lat="46.80482" lon="-1.98327">
        <ele>1</ele>
        <time>2024-12-16T19:26:22Z</time>
      </trkpt>
      <trkpt lat="46.80486" lon="-1.98333">
        <ele>1</ele>
        <time>2024-12-16T19:26:23Z</time>
      </trkpt>
      <trkpt lat="46.80488" lon="-1.9834">
        <ele>1</ele>
        <time>2024-12-16T19:26:24Z</time>
      </trkpt>
      <trkpt lat="46.80488" lon="-1.98353">
        <ele>3.3</ele>
        <time>2024-12-16T19:26:25Z</time>
      </trkpt>
      <trkpt lat="46.8049" lon="-1.98358">
        <ele>3.3</ele>
        <time>2024-12-16T19:26:26Z</time>
      </trkpt>
      <trkpt lat="46.80494" lon="-1.98367">
        <ele>3.1</ele>
        <time>2024-12-16T19:26:27Z</time>
      </trkpt>
      <trkpt lat="46.80512" lon="-1.9839">
        <ele>2.5</ele>
        <time>2024-12-16T19:26:31Z</time>
      </trkpt>
      <trkpt lat="46.80528" lon="-1.98407">
        <ele>-1</ele>
        <time>2024-12-16T19:26:35Z</time>
      </trkpt>
      <trkpt lat="46.80702" lon="-1.98593">
        <ele>-1</ele>
        <time>2024-12-16T19:27:13Z</time>
      </trkpt>
      <trkpt lat="46.80823" lon="-1.98722">
        <ele>1.6</ele>
        <time>2024-12-16T19:27:40Z</time>
      </trkpt>
      <trkpt lat="46.80837" lon="-1.98735">
        <ele>2</ele>
        <time>2024-12-16T19:27:43Z</time>
      </trkpt>
      <trkpt lat="46.8098" lon="-1.98851">
        <ele>2</ele>
        <time>2024-12-16T19:28:12Z</time>
      </trkpt>
      <trkpt lat="46.81008" lon="-1.98873">
        <ele>1</ele>
        <time>2024-12-16T19:28:18Z</time>
      </trkpt>
      <trkpt lat="46.81051" lon="-1.98905">
        <ele>1</ele>
        <time>2024-12-16T19:28:26Z</time>
      </trkpt>
      <trkpt lat="46.81062" lon="-1.98912">
        <ele>1</ele>
        <time>2024-12-16T19:28:28Z</time>
      </trkpt>
      <trkpt lat="46.81087" lon="-1.98918">
        <ele>1</ele>
        <time>2024-12-16T19:28:33Z</time>
      </trkpt>
      <trkpt lat="46.81106" lon="-1.98916">
        <ele>1</ele>
        <time>2024-12-16T19:28:36Z</time>
      </trkpt>
      <trkpt lat="46.81119" lon="-1.98909">
        <ele>1</ele>
        <time>2024-12-16T19:28:39Z</time>
      </trkpt>
      <trkpt lat="46.81124" lon="-1.98903">
        <ele>1</ele>
        <time>2024-12-16T19:28:40Z</time>
      </trkpt>
      <trkpt lat="46.81162" lon="-1.98849">
        <ele>1</ele>
        <time>2024-12-16T19:28:49Z</time>
      </trkpt>
      <trkpt lat="46.81173" lon="-1.98835">
        <ele>1</ele>
        <time>2024-12-16T19:28:52Z</time>
      </trkpt>
      <trkpt lat="46.8119" lon="-1.98821">
        <ele>1</ele>
        <time>2024-12-16T19:28:55Z</time>
      </trkpt>
      <trkpt lat="46.81202" lon="-1.98819">
        <ele>1.7</ele>
        <time>2024-12-16T19:28:58Z</time>
      </trkpt>
      <trkpt lat="46.81218" lon="-1.9882">
        <ele>1.2</ele>
        <time>2024-12-16T19:29:00Z</time>
      </trkpt>
      <trkpt lat="46.81244" lon="-1.98834">
        <ele>1.8</ele>
        <time>2024-12-16T19:29:05Z</time>
      </trkpt>
      <trkpt lat="46.81386" lon="-1.98976">
        <ele>2</ele>
        <time>2024-12-16T19:29:36Z</time>
      </trkpt>
      <trkpt lat="46.81388" lon="-1.98979">
        <ele>2</ele>
        <time>2024-12-16T19:29:37Z</time>
      </trkpt>
      <trkpt lat="46.81458" lon="-1.99047">
        <ele>2</ele>
        <time>2024-12-16T19:29:51Z</time>
      </trkpt>
      <trkpt lat="46.81479" lon="-1.99069">
        <ele>3</ele>
        <time>2024-12-16T19:29:56Z</time>
      </trkpt>
      <trkpt lat="46.81505" lon="-1.99092">
        <ele>3</ele>
        <time>2024-12-16T19:30:01Z</time>
      </trkpt>
      <trkpt lat="46.81517" lon="-1.99099">
        <ele>3</ele>
        <time>2024-12-16T19:30:04Z</time>
      </trkpt>
      <trkpt lat="46.81519" lon="-1.991">
        <ele>3</ele>
        <time>2024-12-16T19:30:04Z</time>
      </trkpt>
      <trkpt lat="46.81524" lon="-1.99093">
        <ele>3</ele>
        <time>2024-12-16T19:30:05Z</time>
      </trkpt>
      <trkpt lat="46.81527" lon="-1.99091">
        <ele>3</ele>
        <time>2024-12-16T19:30:06Z</time>
      </trkpt>
      <trkpt lat="46.81533" lon="-1.99093">
        <ele>2</ele>
        <time>2024-12-16T19:30:07Z</time>
      </trkpt>
      <trkpt lat="46.81536" lon="-1.99096">
        <ele>2</ele>
        <time>2024-12-16T19:30:08Z</time>
      </trkpt>
      <trkpt lat="46.81538" lon="-1.99093">
        <ele>2</ele>
        <time>2024-12-16T19:30:08Z</time>
      </trkpt>
      <trkpt lat="46.81536" lon="-1.99096">
        <ele>2</ele>
        <time>2024-12-16T19:30:09Z</time>
      </trkpt>
      <trkpt lat="46.81537" lon="-1.99099">
        <ele>2</ele>
        <time>2024-12-16T19:30:09Z</time>
      </trkpt>
      <trkpt lat="46.81538" lon="-1.99109">
        <ele>2</ele>
        <time>2024-12-16T19:30:10Z</time>
      </trkpt>
      <trkpt lat="46.81535" lon="-1.99117">
        <ele>2</ele>
        <time>2024-12-16T19:30:11Z</time>
      </trkpt>
      <trkpt lat="46.81541" lon="-1.99126">
        <ele>2</ele>
        <time>2024-12-16T19:30:13Z</time>
      </trkpt>
      <trkpt lat="46.81549" lon="-1.99137">
        <ele>2</ele>
        <time>2024-12-16T19:30:15Z</time>
      </trkpt>
      <trkpt lat="46.81573" lon="-1.99163">
        <ele>1</ele>
        <time>2024-12-16T19:30:20Z</time>
      </trkpt>
      <trkpt lat="46.81591" lon="-1.99179">
        <ele>1</ele>
        <time>2024-12-16T19:30:24Z</time>
      </trkpt>
      <trkpt lat="46.81602" lon="-1.9919">
        <ele>1</ele>
        <time>2024-12-16T19:30:26Z</time>
      </trkpt>
      <trkpt lat="46.8165" lon="-1.9922">
        <ele>2</ele>
        <time>2024-12-16T19:30:36Z</time>
      </trkpt>
      <trkpt lat="46.81702" lon="-1.99237">
        <ele>2</ele>
        <time>2024-12-16T19:30:45Z</time>
      </trkpt>
      <trkpt lat="46.81744" lon="-1.99247">
        <ele>1</ele>
        <time>2024-12-16T19:30:53Z</time>
      </trkpt>
      <trkpt lat="46.81747" lon="-1.99248">
        <ele>1</ele>
        <time>2024-12-16T19:30:53Z</time>
      </trkpt>
      <trkpt lat="46.81786" lon="-1.99257">
        <ele>1</ele>
        <time>2024-12-16T19:31:00Z</time>
      </trkpt>
      <trkpt lat="46.81834" lon="-1.99269">
        <ele>2</ele>
        <time>2024-12-16T19:31:09Z</time>
      </trkpt>
      <trkpt lat="46.81867" lon="-1.99279">
        <ele>2</ele>
        <time>2024-12-16T19:31:15Z</time>
      </trkpt>
      <trkpt lat="46.81899" lon="-1.99283">
        <ele>2</ele>
        <time>2024-12-16T19:31:21Z</time>
      </trkpt>
      <trkpt lat="46.819" lon="-1.99282">
        <ele>2</ele>
        <time>2024-12-16T19:31:21Z</time>
      </trkpt>
      <trkpt lat="46.81904" lon="-1.99281">
        <ele>2</ele>
        <time>2024-12-16T19:31:22Z</time>
      </trkpt>
      <trkpt lat="46.8191" lon="-1.99284">
        <ele>2</ele>
        <time>2024-12-16T19:31:23Z</time>
      </trkpt>
      <trkpt lat="46.81912" lon="-1.99288">
        <ele>2</ele>
        <time>2024-12-16T19:31:23Z</time>
      </trkpt>
      <trkpt lat="46.81913" lon="-1.99291">
        <ele>2</ele>
        <time>2024-12-16T19:31:24Z</time>
      </trkpt>
      <trkpt lat="46.81927" lon="-1.99305">
        <ele>2</ele>
        <time>2024-12-16T19:31:27Z</time>
      </trkpt>
      <trkpt lat="46.81957" lon="-1.9932">
        <ele>2</ele>
        <time>2024-12-16T19:31:32Z</time>
      </trkpt>
      <trkpt lat="46.82" lon="-1.99339">
        <ele>2</ele>
        <time>2024-12-16T19:31:40Z</time>
      </trkpt>
      <trkpt lat="46.82025" lon="-1.99348">
        <ele>2</ele>
        <time>2024-12-16T19:31:45Z</time>
      </trkpt>
      <trkpt lat="46.82032" lon="-1.9935">
        <ele>1</ele>
        <time>2024-12-16T19:31:46Z</time>
      </trkpt>
      <trkpt lat="46.82093" lon="-1.99371">
        <ele>1</ele>
        <time>2024-12-16T19:31:57Z</time>
      </trkpt>
      <trkpt lat="46.82117" lon="-1.9938">
        <ele>1</ele>
        <time>2024-12-16T19:32:02Z</time>
      </trkpt>
      <trkpt lat="46.8212" lon="-1.99381">
        <ele>1</ele>
        <time>2024-12-16T19:32:02Z</time>
      </trkpt>
      <trkpt lat="46.82128" lon="-1.99386">
        <ele>1</ele>
        <time>2024-12-16T19:32:04Z</time>
      </trkpt>
      <trkpt lat="46.82144" lon="-1.99398">
        <ele>1</ele>
        <time>2024-12-16T19:32:07Z</time>
      </trkpt>
      <trkpt lat="46.82181" lon="-1.99421">
        <ele>1</ele>
        <time>2024-12-16T19:32:14Z</time>
      </trkpt>
      <trkpt lat="46.82221" lon="-1.9945">
        <ele>2</ele>
        <time>2024-12-16T19:32:22Z</time>
      </trkpt>
      <trkpt lat="46.8225" lon="-1.99473">
        <ele>2</ele>
        <time>2024-12-16T19:32:28Z</time>
      </trkpt>
      <trkpt lat="46.82261" lon="-1.9948">
        <ele>2</ele>
        <time>2024-12-16T19:32:30Z</time>
      </trkpt>
      <trkpt lat="46.82264" lon="-1.99482">
        <ele>2</ele>
        <time>2024-12-16T19:32:31Z</time>
      </trkpt>
      <trkpt lat="46.82269" lon="-1.99486">
        <ele>2</ele>
        <time>2024-12-16T19:32:32Z</time>
        <extensions>
          <visugpx:TrkExtension xmlns:visugpx="https://www.visugpx.com/editgpx/">
            <visugpx:node>1</visugpx:node>
            </visugpx:TrkExtension>
        </extensions>
      </trkpt>
      <trkpt lat="46.82317" lon="-1.99518">
        <ele>2</ele>
      </trkpt>
      <trkpt lat="46.82357" lon="-1.9954">
        <ele>2</ele>
      </trkpt>
      <trkpt lat="46.82417" lon="-1.99564">
        <ele>2.3</ele>
      </trkpt>
      <trkpt lat="46.82425" lon="-1.99565">
        <ele>2.5</ele>
      </trkpt>
      <trkpt lat="46.82429" lon="-1.99559">
        <ele>2.5</ele>
      </trkpt>
      <trkpt lat="46.82436" lon="-1.99556">
        <ele>2.7</ele>
      </trkpt>
      <trkpt lat="46.82445" lon="-1.99562">
        <ele>3</ele>
      </trkpt>
      <trkpt lat="46.82449" lon="-1.99574">
        <ele>2.8</ele>
      </trkpt>
      <trkpt lat="46.82448" lon="-1.99583">
        <ele>2.9</ele>
      </trkpt>
      <trkpt lat="46.82445" lon="-1.99589">
        <ele>2.8</ele>
      </trkpt>
      <trkpt lat="46.8244" lon="-1.99593">
        <ele>2.7</ele>
      </trkpt>
      <trkpt lat="46.82432" lon="-1.99593">
        <ele>2.7</ele>
      </trkpt>
      <trkpt lat="46.8243" lon="-1.99632">
        <ele>2</ele>
      </trkpt>
      <trkpt lat="46.82431" lon="-1.9966">
        <ele>2</ele>
      </trkpt>
      <trkpt lat="46.8244" lon="-1.99744">
        <ele>2</ele>
      </trkpt>
      <trkpt lat="46.82443" lon="-1.99795">
        <ele>2</ele>
      </trkpt>
      <trkpt lat="46.82441" lon="-1.99851">
        <ele>2</ele>
      </trkpt>
      <trkpt lat="46.82323" lon="-2.01365">
        <ele>1.7</ele>
      </trkpt>
      <trkpt lat="46.82315" lon="-2.01427">
        <ele>2.4</ele>
      </trkpt>
      <trkpt lat="46.82282" lon="-2.01643">
        <ele>2</ele>
      </trkpt>
      <trkpt lat="46.82278" lon="-2.01692">
        <ele>2</ele>
      </trkpt>
      <trkpt lat="46.8228" lon="-2.01739">
        <ele>2</ele>
      </trkpt>
      <trkpt lat="46.8229" lon="-2.01799">
        <ele>2</ele>
      </trkpt>
      <trkpt lat="46.82295" lon="-2.01813">
        <ele>2</ele>
      </trkpt>
      <trkpt lat="46.82307" lon="-2.01835">
        <ele>1.9</ele>
      </trkpt>
      <trkpt lat="46.82331" lon="-2.01866">
        <ele>1.8</ele>
      </trkpt>
      <trkpt lat="46.82414" lon="-2.01961">
        <ele>2</ele>
      </trkpt>
      <trkpt lat="46.82446" lon="-2.02002">
        <ele>2</ele>
      </trkpt>
      <trkpt lat="46.82456" lon="-2.0202">
        <ele>2</ele>
      </trkpt>
      <trkpt lat="46.82462" lon="-2.02034">
        <ele>2</ele>
      </trkpt>
      <trkpt lat="46.82472" lon="-2.02066">
        <ele>2</ele>
      </trkpt>
      <trkpt lat="46.82495" lon="-2.02153">
        <ele>2</ele>
      </trkpt>
      <trkpt lat="46.82512" lon="-2.02226">
        <ele>2</ele>
      </trkpt>
      <trkpt lat="46.82519" lon="-2.02266">
        <ele>2</ele>
      </trkpt>
      <trkpt lat="46.82543" lon="-2.02465">
        <ele>1.5</ele>
      </trkpt>
      <trkpt lat="46.82543" lon="-2.02511">
        <ele>2</ele>
      </trkpt>
      <trkpt lat="46.8254" lon="-2.02534">
        <ele>2</ele>
      </trkpt>
      <trkpt lat="46.82516" lon="-2.02669">
        <ele>2</ele>
      </trkpt>
      <trkpt lat="46.82509" lon="-2.02717">
        <ele>2</ele>
      </trkpt>
      <trkpt lat="46.82507" lon="-2.0274">
        <ele>2</ele>
      </trkpt>
      <trkpt lat="46.82506" lon="-2.02797">
        <ele>2</ele>
      </trkpt>
      <trkpt lat="46.82537" lon="-2.03077">
        <ele>2</ele>
      </trkpt>
      <trkpt lat="46.82546" lon="-2.03145">
        <ele>2</ele>
      </trkpt>
      <trkpt lat="46.82557" lon="-2.03199">
        <ele>2</ele>
      </trkpt>
      <trkpt lat="46.82574" lon="-2.03249">
        <ele>1.4</ele>
      </trkpt>
      <trkpt lat="46.82698" lon="-2.03539">
        <ele>2</ele>
      </trkpt>
      <trkpt lat="46.82738" lon="-2.03639">
        <ele>2</ele>
      </trkpt>
      <trkpt lat="46.82804" lon="-2.03813">
        <ele>2</ele>
      </trkpt>
      <trkpt lat="46.82814" lon="-2.03857">
        <ele>2</ele>
      </trkpt>
      <trkpt lat="46.82829" lon="-2.03953">
        <ele>2.2</ele>
      </trkpt>
      <trkpt lat="46.82801" lon="-2.03962">
        <ele>1.7</ele>
        <extensions>
          <visugpx:TrkExtension xmlns:visugpx="https://www.visugpx.com/editgpx/">
            <visugpx:node>2</visugpx:node>
            </visugpx:TrkExtension>
        </extensions>
      </trkpt>
      <trkpt lat="46.82864" lon="-2.03943">
        <ele>1.9</ele>
      </trkpt>
      <trkpt lat="46.82926" lon="-2.03915">
        <ele>1.7</ele>
      </trkpt>
      <trkpt lat="46.82945" lon="-2.03912">
        <ele>1.2</ele>
      </trkpt>
      <trkpt lat="46.82991" lon="-2.03916">
        <ele>2</ele>
      </trkpt>
      <trkpt lat="46.83015" lon="-2.03912">
        <ele>1.8</ele>
      </trkpt>
      <trkpt lat="46.83084" lon="-2.03881">
        <ele>1.7</ele>
      </trkpt>
      <trkpt lat="46.83099" lon="-2.03872">
        <ele>1.7</ele>
      </trkpt>
      <trkpt lat="46.8311" lon="-2.03863">
        <ele>2</ele>
      </trkpt>
      <trkpt lat="46.83127" lon="-2.03844">
        <ele>1.4</ele>
      </trkpt>
      <trkpt lat="46.83144" lon="-2.03813">
        <ele>1.2</ele>
      </trkpt>
      <trkpt lat="46.83175" lon="-2.0375">
        <ele>1.7</ele>
      </trkpt>
      <trkpt lat="46.83183" lon="-2.03736">
        <ele>1.4</ele>
      </trkpt>
      <trkpt lat="46.83202" lon="-2.0371">
        <ele>1.1</ele>
      </trkpt>
      <trkpt lat="46.83277" lon="-2.03621">
        <ele>1.6</ele>
      </trkpt>
      <trkpt lat="46.83294" lon="-2.03607">
        <ele>1.9</ele>
      </trkpt>
      <trkpt lat="46.83301" lon="-2.03604">
        <ele>1.8</ele>
      </trkpt>
      <trkpt lat="46.83309" lon="-2.03603">
        <ele>1.7</ele>
      </trkpt>
      <trkpt lat="46.83323" lon="-2.03608">
        <ele>2</ele>
      </trkpt>
      <trkpt lat="46.83331" lon="-2.03616">
        <ele>2</ele>
      </trkpt>
      <trkpt lat="46.83347" lon="-2.03638">
        <ele>2</ele>
      </trkpt>
      <trkpt lat="46.83356" lon="-2.03647">
        <ele>1.9</ele>
      </trkpt>
      <trkpt lat="46.8337" lon="-2.03651">
        <ele>2</ele>
      </trkpt>
      <trkpt lat="46.83378" lon="-2.0365">
        <ele>2</ele>
      </trkpt>
      <trkpt lat="46.83401" lon="-2.03639">
        <ele>1.6</ele>
      </trkpt>
      <trkpt lat="46.83695" lon="-2.03466">
        <ele>2</ele>
      </trkpt>
      <trkpt lat="46.83742" lon="-2.03446">
        <ele>1.7</ele>
      </trkpt>
      <trkpt lat="46.83764" lon="-2.0344">
        <ele>1.4</ele>
      </trkpt>
      <trkpt lat="46.83776" lon="-2.03439">
        <ele>1.1</ele>
      </trkpt>
      <trkpt lat="46.83786" lon="-2.0344">
        <ele>1.2</ele>
      </trkpt>
      <trkpt lat="46.83794" lon="-2.03443">
        <ele>1.6</ele>
      </trkpt>
      <trkpt lat="46.83801" lon="-2.03447">
        <ele>1.8</ele>
      </trkpt>
      <trkpt lat="46.83807" lon="-2.03454">
        <ele>1.7</ele>
      </trkpt>
      <trkpt lat="46.83817" lon="-2.03472">
        <ele>1.4</ele>
      </trkpt>
      <trkpt lat="46.83842" lon="-2.0353">
        <ele>1.1</ele>
      </trkpt>
      <trkpt lat="46.83855" lon="-2.0355">
        <ele>1.8</ele>
      </trkpt>
      <trkpt lat="46.83862" lon="-2.03557">
        <ele>1.9</ele>
      </trkpt>
      <trkpt lat="46.83868" lon="-2.0356">
        <ele>1.9</ele>
      </trkpt>
      <trkpt lat="46.83877" lon="-2.03561">
        <ele>1.9</ele>
      </trkpt>
      <trkpt lat="46.83883" lon="-2.0356">
        <ele>2</ele>
      </trkpt>
      <trkpt lat="46.8389" lon="-2.03556">
        <ele>2</ele>
      </trkpt>
      <trkpt lat="46.83929" lon="-2.03522">
        <ele>2</ele>
      </trkpt>
      <trkpt lat="46.84169" lon="-2.03293">
        <ele>1.5</ele>
      </trkpt>
      <trkpt lat="46.84199" lon="-2.03262">
        <ele>1.4</ele>
      </trkpt>
      <trkpt lat="46.84318" lon="-2.03116">
        <ele>1.8</ele>
      </trkpt>
      <trkpt lat="46.84548" lon="-2.02827">
        <ele>2</ele>
      </trkpt>
      <trkpt lat="46.84577" lon="-2.02784">
        <ele>1.8</ele>
      </trkpt>
      <trkpt lat="46.84607" lon="-2.02734">
        <ele>1.6</ele>
      </trkpt>
      <trkpt lat="46.8472" lon="-2.02539">
        <ele>2</ele>
      </trkpt>
      <trkpt lat="46.84732" lon="-2.02516">
        <ele>1.6</ele>
      </trkpt>
      <trkpt lat="46.84756" lon="-2.02465">
        <ele>1.9</ele>
      </trkpt>
      <trkpt lat="46.84803" lon="-2.02335">
        <ele>1.9</ele>
      </trkpt>
      <trkpt lat="46.84823" lon="-2.02291">
        <ele>2</ele>
      </trkpt>
      <trkpt lat="46.84833" lon="-2.02274">
        <ele>1.9</ele>
      </trkpt>
      <trkpt lat="46.84849" lon="-2.02252">
        <ele>1</ele>
      </trkpt>
      <trkpt lat="46.84859" lon="-2.02242">
        <ele>1</ele>
      </trkpt>
      <trkpt lat="46.84905" lon="-2.02206">
        <ele>2</ele>
      </trkpt>
      <trkpt lat="46.84924" lon="-2.02187">
        <ele>1.8</ele>
      </trkpt>
      <trkpt lat="46.84949" lon="-2.02154">
        <ele>1.5</ele>
      </trkpt>
      <trkpt lat="46.85008" lon="-2.02066">
        <ele>1</ele>
      </trkpt>
      <trkpt lat="46.8503" lon="-2.02042">
        <ele>1.1</ele>
      </trkpt>
      <trkpt lat="46.8505" lon="-2.02028">
        <ele>1.8</ele>
      </trkpt>
      <trkpt lat="46.85072" lon="-2.02016">
        <ele>2</ele>
      </trkpt>
      <trkpt lat="46.85091" lon="-2.02009">
        <ele>2</ele>
      </trkpt>
      <trkpt lat="46.85109" lon="-2.02008">
        <ele>2</ele>
      </trkpt>
      <trkpt lat="46.85121" lon="-2.0201">
        <ele>1.9</ele>
      </trkpt>
      <trkpt lat="46.8514" lon="-2.02016">
        <ele>1.4</ele>
      </trkpt>
      <trkpt lat="46.85203" lon="-2.02039">
        <ele>1.3</ele>
      </trkpt>
      <trkpt lat="46.8527" lon="-2.02061">
        <ele>2</ele>
      </trkpt>
      <trkpt lat="46.85303" lon="-2.02068">
        <ele>1.6</ele>
      </trkpt>
      <trkpt lat="46.85327" lon="-2.02066">
        <ele>1.1</ele>
      </trkpt>
      <trkpt lat="46.85339" lon="-2.02062">
        <ele>1</ele>
      </trkpt>
      <trkpt lat="46.85353" lon="-2.02054">
        <ele>1</ele>
      </trkpt>
      <trkpt lat="46.85376" lon="-2.02037">
        <ele>1</ele>
      </trkpt>
      <trkpt lat="46.85441" lon="-2.01973">
        <ele>2</ele>
      </trkpt>
      <trkpt lat="46.85472" lon="-2.01949">
        <ele>2</ele>
      </trkpt>
      <trkpt lat="46.85494" lon="-2.01935">
        <ele>1.4</ele>
      </trkpt>
      <trkpt lat="46.85522" lon="-2.0192">
        <ele>1.9</ele>
      </trkpt>
      <trkpt lat="46.85589" lon="-2.01887">
        <ele>1.8</ele>
      </trkpt>
      <trkpt lat="46.85606" lon="-2.01876">
        <ele>1.6</ele>
      </trkpt>
      <trkpt lat="46.8562" lon="-2.01863">
        <ele>1.7</ele>
        <extensions>
          <visugpx:TrkExtension xmlns:visugpx="https://www.visugpx.com/editgpx/">
            <visugpx:node>3</visugpx:node>
            </visugpx:TrkExtension>
        </extensions>
      </trkpt>
      <trkpt lat="46.85637" lon="-2.01844">
        <ele>1.6</ele>
      </trkpt>
      <trkpt lat="46.85647" lon="-2.01828">
        <ele>1.9</ele>
      </trkpt>
      <trkpt lat="46.85655" lon="-2.0181">
        <ele>1.5</ele>
      </trkpt>
      <trkpt lat="46.8566" lon="-2.01794">
        <ele>1.6</ele>
      </trkpt>
      <trkpt lat="46.85673" lon="-2.01743">
        <ele>1.8</ele>
      </trkpt>
      <trkpt lat="46.85711" lon="-2.01576">
        <ele>1.3</ele>
      </trkpt>
      <trkpt lat="46.85723" lon="-2.0153">
        <ele>2</ele>
      </trkpt>
      <trkpt lat="46.85735" lon="-2.01492">
        <ele>1.4</ele>
      </trkpt>
      <trkpt lat="46.85741" lon="-2.01476">
        <ele>1</ele>
      </trkpt>
      <trkpt lat="46.85751" lon="-2.01456">
        <ele>1.6</ele>
      </trkpt>
      <trkpt lat="46.85794" lon="-2.01386">
        <ele>2</ele>
      </trkpt>
      <trkpt lat="46.85804" lon="-2.01367">
        <ele>2</ele>
      </trkpt>
      <trkpt lat="46.85819" lon="-2.01334">
        <ele>1.5</ele>
      </trkpt>
      <trkpt lat="46.85828" lon="-2.01306">
        <ele>2</ele>
      </trkpt>
      <trkpt lat="46.85831" lon="-2.0129">
        <ele>2</ele>
      </trkpt>
      <trkpt lat="46.85832" lon="-2.01261">
        <ele>2</ele>
      </trkpt>
      <trkpt lat="46.85825" lon="-2.01195">
        <ele>2</ele>
      </trkpt>
      <trkpt lat="46.85863" lon="-2.00882">
        <ele>2</ele>
      </trkpt>
      <trkpt lat="46.85868" lon="-2.00855">
        <ele>2</ele>
      </trkpt>
      <trkpt lat="46.85895" lon="-2.0076">
        <ele>1.4</ele>
      </trkpt>
      <trkpt lat="46.85909" lon="-2.00693">
        <ele>1.7</ele>
      </trkpt>
      <trkpt lat="46.85917" lon="-2.00643">
        <ele>2</ele>
      </trkpt>
      <trkpt lat="46.85923" lon="-2.00538">
        <ele>2</ele>
      </trkpt>
      <trkpt lat="46.85929" lon="-2.00309">
        <ele>1.1</ele>
      </trkpt>
      <trkpt lat="46.85931" lon="-2.00273">
        <ele>1</ele>
      </trkpt>
      <trkpt lat="46.85936" lon="-2.00245">
        <ele>1.2</ele>
      </trkpt>
      <trkpt lat="46.85949" lon="-2.00219">
        <ele>2</ele>
      </trkpt>
      <trkpt lat="46.8598" lon="-2.00178">
        <ele>1.8</ele>
      </trkpt>
      <trkpt lat="46.86001" lon="-2.00146">
        <ele>1.7</ele>
      </trkpt>
      <trkpt lat="46.8601" lon="-2.00128">
        <ele>1.6</ele>
      </trkpt>
      <trkpt lat="46.86025" lon="-2.00083">
        <ele>2</ele>
      </trkpt>
      <trkpt lat="46.8604" lon="-2.00007">
        <ele>1.6</ele>
      </trkpt>
      <trkpt lat="46.8605" lon="-1.99967">
        <ele>2</ele>
      </trkpt>
      <trkpt lat="46.86073" lon="-1.99896">
        <ele>2</ele>
      </trkpt>
      <trkpt lat="46.86121" lon="-1.99769">
        <ele>2</ele>
      </trkpt>
      <trkpt lat="46.8614" lon="-1.99723">
        <ele>2</ele>
      </trkpt>
      <trkpt lat="46.86168" lon="-1.99663">
        <ele>2</ele>
      </trkpt>
      <trkpt lat="46.86185" lon="-1.99632">
        <ele>1.5</ele>
      </trkpt>
      <trkpt lat="46.86232" lon="-1.99562">
        <ele>1.7</ele>
      </trkpt>
      <trkpt lat="46.86238" lon="-1.99551">
        <ele>1.6</ele>
      </trkpt>
      <trkpt lat="46.86244" lon="-1.99531">
        <ele>1.8</ele>
      </trkpt>
      <trkpt lat="46.86245" lon="-1.99508">
        <ele>1.8</ele>
      </trkpt>
      <trkpt lat="46.8624" lon="-1.99453">
        <ele>1.9</ele>
      </trkpt>
      <trkpt lat="46.86239" lon="-1.99407">
        <ele>1.7</ele>
      </trkpt>
      <trkpt lat="46.86247" lon="-1.99275">
        <ele>1.9</ele>
      </trkpt>
      <trkpt lat="46.86246" lon="-1.99226">
        <ele>2</ele>
      </trkpt>
      <trkpt lat="46.86226" lon="-1.99129">
        <ele>2.3</ele>
      </trkpt>
      <trkpt lat="46.86222" lon="-1.99081">
        <ele>2</ele>
      </trkpt>
      <trkpt lat="46.86223" lon="-1.99047">
        <ele>2</ele>
      </trkpt>
      <trkpt lat="46.86229" lon="-1.98964">
        <ele>2</ele>
      </trkpt>
      <trkpt lat="46.86239" lon="-1.98882">
        <ele>1.4</ele>
      </trkpt>
      <trkpt lat="46.86238" lon="-1.98858">
        <ele>1.4</ele>
      </trkpt>
      <trkpt lat="46.86233" lon="-1.9882">
        <ele>1.7</ele>
      </trkpt>
      <trkpt lat="46.86232" lon="-1.988">
        <ele>2</ele>
      </trkpt>
      <trkpt lat="46.86233" lon="-1.98779">
        <ele>2</ele>
      </trkpt>
      <trkpt lat="46.86239" lon="-1.98727">
        <ele>2</ele>
      </trkpt>
      <trkpt lat="46.8624" lon="-1.98696">
        <ele>2</ele>
      </trkpt>
      <trkpt lat="46.86234" lon="-1.98665">
        <ele>2</ele>
      </trkpt>
      <trkpt lat="46.8619" lon="-1.98561">
        <ele>1.3</ele>
      </trkpt>
      <trkpt lat="46.86178" lon="-1.98528">
        <ele>1.4</ele>
      </trkpt>
      <trkpt lat="46.86174" lon="-1.98501">
        <ele>2.7</ele>
      </trkpt>
      <trkpt lat="46.86176" lon="-1.98487">
        <ele>2</ele>
      </trkpt>
      <trkpt lat="46.8618" lon="-1.98473">
        <ele>1.5</ele>
      </trkpt>
      <trkpt lat="46.86201" lon="-1.98419">
        <ele>2</ele>
      </trkpt>
      <trkpt lat="46.86249" lon="-1.98279">
        <ele>2</ele>
      </trkpt>
      <trkpt lat="46.86274" lon="-1.9817">
        <ele>1.9</ele>
      </trkpt>
      <trkpt lat="46.86281" lon="-1.98145">
        <ele>2</ele>
      </trkpt>
      <trkpt lat="46.86296" lon="-1.98106">
        <ele>2</ele>
      </trkpt>
      <trkpt lat="46.86309" lon="-1.98082">
        <ele>2</ele>
      </trkpt>
      <trkpt lat="46.86336" lon="-1.98041">
        <ele>1.6</ele>
      </trkpt>
      <trkpt lat="46.86428" lon="-1.97916">
        <ele>2.6</ele>
      </trkpt>
      <trkpt lat="46.86457" lon="-1.97884">
        <ele>2.1</ele>
      </trkpt>
      <trkpt lat="46.86492" lon="-1.97851">
        <ele>2.1</ele>
      </trkpt>
      <trkpt lat="46.8656" lon="-1.97779">
        <ele>2.2</ele>
      </trkpt>
      <trkpt lat="46.86591" lon="-1.9774">
        <ele>2.4</ele>
      </trkpt>
      <trkpt lat="46.86649" lon="-1.9766">
        <ele>3</ele>
        <extensions>
          <visugpx:TrkExtension xmlns:visugpx="https://www.visugpx.com/editgpx/">
            <visugpx:node>4</visugpx:node>
            </visugpx:TrkExtension>
        </extensions>
      </trkpt>
      <trkpt lat="46.86803" lon="-1.97552">
        <ele>6</ele>
      </trkpt>
      <trkpt lat="46.87228" lon="-1.97099">
        <ele>13.2</ele>
      </trkpt>
      <trkpt lat="46.87422" lon="-1.96909">
        <ele>14.2</ele>
      </trkpt>
      <trkpt lat="46.87501" lon="-1.96842">
        <ele>14</ele>
      </trkpt>
      <trkpt lat="46.87548" lon="-1.96782">
        <ele>14</ele>
      </trkpt>
      <trkpt lat="46.87778" lon="-1.96512">
        <ele>14</ele>
      </trkpt>
      <trkpt lat="46.87897" lon="-1.96241">
        <ele>13.9</ele>
      </trkpt>
      <trkpt lat="46.87986" lon="-1.96067">
        <ele>13</ele>
      </trkpt>
      <trkpt lat="46.87633" lon="-1.95647">
        <ele>13.2</ele>
      </trkpt>
      <trkpt lat="46.87681" lon="-1.95593">
        <ele>14</ele>
      </trkpt>
      <trkpt lat="46.87836" lon="-1.95519">
        <ele>14</ele>
      </trkpt>
      <trkpt lat="46.87863" lon="-1.95503">
        <ele>14</ele>
      </trkpt>
      <trkpt lat="46.87876" lon="-1.95486">
        <ele>14</ele>
      </trkpt>
      <trkpt lat="46.87882" lon="-1.95458">
        <ele>14</ele>
      </trkpt>
      <trkpt lat="46.87888" lon="-1.95441">
        <ele>14</ele>
      </trkpt>
      <trkpt lat="46.87912" lon="-1.95413">
        <ele>14</ele>
      </trkpt>
      <trkpt lat="46.87946" lon="-1.95389">
        <ele>14</ele>
      </trkpt>
      <trkpt lat="46.87997" lon="-1.95372">
        <ele>13.4</ele>
      </trkpt>
      <trkpt lat="46.88041" lon="-1.9536">
        <ele>13</ele>
      </trkpt>
      <trkpt lat="46.88091" lon="-1.95329">
        <ele>12.6</ele>
      </trkpt>
      <trkpt lat="46.88133" lon="-1.95291">
        <ele>12</ele>
      </trkpt>
      <trkpt lat="46.88148" lon="-1.95271">
        <ele>11.7</ele>
      </trkpt>
      <trkpt lat="46.88155" lon="-1.95248">
        <ele>12</ele>
      </trkpt>
      <trkpt lat="46.88148" lon="-1.94941">
        <ele>11</ele>
      </trkpt>
      <trkpt lat="46.88162" lon="-1.94439">
        <ele>10.3</ele>
      </trkpt>
      <trkpt lat="46.88178" lon="-1.94162">
        <ele>11.9</ele>
      </trkpt>
      <trkpt lat="46.8817" lon="-1.93917">
        <ele>12</ele>
      </trkpt>
      <trkpt lat="46.88155" lon="-1.9381">
        <ele>13</ele>
      </trkpt>
      <trkpt lat="46.88013" lon="-1.93304">
        <ele>14</ele>
      </trkpt>
      <trkpt lat="46.88206" lon="-1.93229">
        <ele>14</ele>
      </trkpt>
      <trkpt lat="46.88371" lon="-1.93158">
        <ele>14</ele>
      </trkpt>
      <trkpt lat="46.88403" lon="-1.93113">
        <ele>14</ele>
      </trkpt>
      <trkpt lat="46.88445" lon="-1.92956">
        <ele>14.6</ele>
      </trkpt>
      <trkpt lat="46.88484" lon="-1.92743">
        <ele>15</ele>
      </trkpt>
      <trkpt lat="46.88491" lon="-1.92687">
        <ele>15</ele>
      </trkpt>
      <trkpt lat="46.88493" lon="-1.92638">
        <ele>15</ele>
      </trkpt>
      <trkpt lat="46.8849" lon="-1.92586">
        <ele>15</ele>
      </trkpt>
      <trkpt lat="46.88433" lon="-1.92072">
        <ele>15</ele>
      </trkpt>
      <trkpt lat="46.88424" lon="-1.91979">
        <ele>15</ele>
      </trkpt>
      <trkpt lat="46.88422" lon="-1.9191">
        <ele>15</ele>
      </trkpt>
      <trkpt lat="46.88431" lon="-1.91706">
        <ele>15.5</ele>
      </trkpt>
      <trkpt lat="46.88444" lon="-1.91438">
        <ele>16</ele>
      </trkpt>
      <trkpt lat="46.8845" lon="-1.91376">
        <ele>16.1</ele>
      </trkpt>
      <trkpt lat="46.88454" lon="-1.9135">
        <ele>16.2</ele>
      </trkpt>
      <trkpt lat="46.88467" lon="-1.91288">
        <ele>16</ele>
      </trkpt>
      <trkpt lat="46.88511" lon="-1.91118">
        <ele>16</ele>
      </trkpt>
      <trkpt lat="46.88526" lon="-1.91051">
        <ele>15.8</ele>
      </trkpt>
      <trkpt lat="46.88538" lon="-1.90984">
        <ele>15</ele>
      </trkpt>
      <trkpt lat="46.88548" lon="-1.90874">
        <ele>14</ele>
      </trkpt>
      <trkpt lat="46.88582" lon="-1.90318">
        <ele>12</ele>
      </trkpt>
      <trkpt lat="46.88586" lon="-1.90228">
        <ele>12</ele>
      </trkpt>
      <trkpt lat="46.88586" lon="-1.9015">
        <ele>12</ele>
      </trkpt>
      <trkpt lat="46.8858" lon="-1.8996">
        <ele>12.1</ele>
      </trkpt>
      <trkpt lat="46.88581" lon="-1.89934">
        <ele>12.1</ele>
      </trkpt>
      <trkpt lat="46.88587" lon="-1.89846">
        <ele>12</ele>
      </trkpt>
      <trkpt lat="46.88597" lon="-1.89753">
        <ele>12</ele>
      </trkpt>
      <trkpt lat="46.88629" lon="-1.89372">
        <ele>11.6</ele>
      </trkpt>
      <trkpt lat="46.88629" lon="-1.89298">
        <ele>11.8</ele>
      </trkpt>
      <trkpt lat="46.88617" lon="-1.89136">
        <ele>14.1</ele>
      </trkpt>
      <trkpt lat="46.88614" lon="-1.89075">
        <ele>15.2</ele>
      </trkpt>
      <trkpt lat="46.88617" lon="-1.89032">
        <ele>16.6</ele>
      </trkpt>
      <trkpt lat="46.88625" lon="-1.88992">
        <ele>17.1</ele>
      </trkpt>
      <trkpt lat="46.88636" lon="-1.88954">
        <ele>17.7</ele>
      </trkpt>
      <trkpt lat="46.88997" lon="-1.87922">
        <ele>14</ele>
      </trkpt>
      <trkpt lat="46.89005" lon="-1.87895">
        <ele>14.2</ele>
      </trkpt>
      <trkpt lat="46.89016" lon="-1.87848">
        <ele>15</ele>
      </trkpt>
      <trkpt lat="46.89025" lon="-1.87789">
        <ele>15</ele>
      </trkpt>
      <trkpt lat="46.89013" lon="-1.87785">
        <ele>15</ele>
        <extensions>
          <visugpx:TrkExtension xmlns:visugpx="https://www.visugpx.com/editgpx/">
            <visugpx:node>7</visugpx:node>
            </visugpx:TrkExtension>
        </extensions>
      </trkpt>
      <trkpt lat="46.89025" lon="-1.87789">
        <ele>15</ele>
      </trkpt>
      <trkpt lat="46.89029" lon="-1.87737">
        <ele>15</ele>
      </trkpt>
      <trkpt lat="46.89053" lon="-1.87007">
        <ele>17.7</ele>
      </trkpt>
      <trkpt lat="46.89057" lon="-1.86922">
        <ele>18</ele>
      </trkpt>
      <trkpt lat="46.89061" lon="-1.86889">
        <ele>18</ele>
      </trkpt>
      <trkpt lat="46.89073" lon="-1.86823">
        <ele>19</ele>
      </trkpt>
      <trkpt lat="46.89093" lon="-1.86749">
        <ele>19</ele>
      </trkpt>
      <trkpt lat="46.89251" lon="-1.86274">
        <ele>23</ele>
      </trkpt>
      <trkpt lat="46.89269" lon="-1.86213">
        <ele>23.2</ele>
      </trkpt>
      <trkpt lat="46.89277" lon="-1.86178">
        <ele>24</ele>
      </trkpt>
      <trkpt lat="46.89282" lon="-1.86151">
        <ele>24</ele>
      </trkpt>
      <trkpt lat="46.89288" lon="-1.86103">
        <ele>24</ele>
      </trkpt>
      <trkpt lat="46.89318" lon="-1.85644">
        <ele>25</ele>
      </trkpt>
      <trkpt lat="46.89323" lon="-1.85579">
        <ele>25</ele>
      </trkpt>
      <trkpt lat="46.89328" lon="-1.85539">
        <ele>25.6</ele>
      </trkpt>
      <trkpt lat="46.89341" lon="-1.85482">
        <ele>26</ele>
      </trkpt>
      <trkpt lat="46.89415" lon="-1.85212">
        <ele>28</ele>
        <extensions>
          <visugpx:TrkExtension xmlns:visugpx="https://www.visugpx.com/editgpx/">
            <visugpx:node>8</visugpx:node>
            </visugpx:TrkExtension>
        </extensions>
      </trkpt>
      <trkpt lat="46.89431" lon="-1.85172">
        <ele>26</ele>
        <time>2024-12-16T20:13:25Z</time>
      </trkpt>
      <trkpt lat="46.89446" lon="-1.85105">
        <ele>27</ele>
        <time>2024-12-16T20:13:34Z</time>
      </trkpt>
      <trkpt lat="46.89454" lon="-1.85046">
        <ele>27</ele>
        <time>2024-12-16T20:13:41Z</time>
      </trkpt>
      <trkpt lat="46.89455" lon="-1.84974">
        <ele>28</ele>
        <time>2024-12-16T20:13:50Z</time>
      </trkpt>
      <trkpt lat="46.8945" lon="-1.84854">
        <ele>28</ele>
        <time>2024-12-16T20:14:05Z</time>
      </trkpt>
      <trkpt lat="46.89447" lon="-1.84818">
        <ele>28</ele>
        <time>2024-12-16T20:14:09Z</time>
      </trkpt>
      <trkpt lat="46.89446" lon="-1.84817">
        <ele>28</ele>
        <time>2024-12-16T20:14:09Z</time>
      </trkpt>
      <trkpt lat="46.89439" lon="-1.84812">
        <ele>28</ele>
        <time>2024-12-16T20:14:11Z</time>
      </trkpt>
      <trkpt lat="46.89432" lon="-1.8483">
        <ele>28</ele>
        <time>2024-12-16T20:14:13Z</time>
      </trkpt>
      <trkpt lat="46.89427" lon="-1.84837">
        <ele>28</ele>
        <time>2024-12-16T20:14:14Z</time>
      </trkpt>
      <trkpt lat="46.89412" lon="-1.84816">
        <ele>28</ele>
        <time>2024-12-16T20:14:18Z</time>
      </trkpt>
      <trkpt lat="46.89265" lon="-1.84626">
        <ele>26</ele>
        <time>2024-12-16T20:14:53Z</time>
      </trkpt>
      <trkpt lat="46.89252" lon="-1.84605">
        <ele>26</ele>
        <time>2024-12-16T20:14:56Z</time>
      </trkpt>
      <trkpt lat="46.89253" lon="-1.84591">
        <ele>26</ele>
        <time>2024-12-16T20:14:58Z</time>
      </trkpt>
      <trkpt lat="46.89251" lon="-1.84584">
        <ele>26</ele>
        <time>2024-12-16T20:14:59Z</time>
      </trkpt>
      <trkpt lat="46.89244" lon="-1.84575">
        <ele>26</ele>
        <time>2024-12-16T20:15:01Z</time>
      </trkpt>
      <trkpt lat="46.89239" lon="-1.84573">
        <ele>25</ele>
        <time>2024-12-16T20:15:02Z</time>
      </trkpt>
      <trkpt lat="46.89229" lon="-1.84577">
        <ele>25</ele>
        <time>2024-12-16T20:15:04Z</time>
      </trkpt>
      <trkpt lat="46.89225" lon="-1.84582">
        <ele>25</ele>
        <time>2024-12-16T20:15:04Z</time>
      </trkpt>
      <trkpt lat="46.89205" lon="-1.84562">
        <ele>24</ele>
        <time>2024-12-16T20:15:09Z</time>
      </trkpt>
      <trkpt lat="46.89173" lon="-1.8453">
        <ele>23</ele>
        <time>2024-12-16T20:15:16Z</time>
      </trkpt>
      <trkpt lat="46.89115" lon="-1.84472">
        <ele>22</ele>
        <time>2024-12-16T20:15:28Z</time>
      </trkpt>
      <trkpt lat="46.89099" lon="-1.84455">
        <ele>21</ele>
        <time>2024-12-16T20:15:32Z</time>
      </trkpt>
      <trkpt lat="46.8908" lon="-1.84434">
        <ele>21</ele>
        <time>2024-12-16T20:15:36Z</time>
      </trkpt>
      <trkpt lat="46.89064" lon="-1.84412">
        <ele>20</ele>
        <time>2024-12-16T20:15:40Z</time>
      </trkpt>
      <trkpt lat="46.89051" lon="-1.84388">
        <ele>19</ele>
        <time>2024-12-16T20:15:44Z</time>
      </trkpt>
      <trkpt lat="46.89051" lon="-1.84388">
        <ele>19</ele>
        <time>2024-12-16T20:16:04Z</time>
      </trkpt>
      <trkpt lat="46.89072" lon="-1.8437">
        <ele>19</ele>
        <time>2024-12-16T20:16:08Z</time>
      </trkpt>
      <trkpt lat="46.89107" lon="-1.84346">
        <ele>20</ele>
        <time>2024-12-16T20:16:15Z</time>
      </trkpt>
      <trkpt lat="46.89121" lon="-1.84337">
        <ele>20</ele>
        <time>2024-12-16T20:16:18Z</time>
      </trkpt>
      <trkpt lat="46.89181" lon="-1.84296">
        <ele>21</ele>
        <time>2024-12-16T20:16:30Z</time>
      </trkpt>
      <trkpt lat="46.89282" lon="-1.84224">
        <ele>20</ele>
        <time>2024-12-16T20:16:50Z</time>
      </trkpt>
      <trkpt lat="46.89282" lon="-1.84178">
        <ele>20</ele>
        <time>2024-12-16T20:16:55Z</time>
      </trkpt>
      <trkpt lat="46.89288" lon="-1.84121">
        <ele>21</ele>
        <time>2024-12-16T20:17:02Z</time>
      </trkpt>
      <trkpt lat="46.8929" lon="-1.84102">
        <ele>22</ele>
        <time>2024-12-16T20:17:05Z</time>
      </trkpt>
      <trkpt lat="46.89299" lon="-1.83999">
        <ele>26</ele>
        <time>2024-12-16T20:17:17Z</time>
      </trkpt>
      <trkpt lat="46.89298" lon="-1.83924">
        <ele>25</ele>
        <time>2024-12-16T20:17:26Z</time>
      </trkpt>
      <trkpt lat="46.89296" lon="-1.83868">
        <ele>25</ele>
        <time>2024-12-16T20:17:33Z</time>
      </trkpt>
      <trkpt lat="46.89295" lon="-1.83807">
        <ele>25</ele>
        <time>2024-12-16T20:17:41Z</time>
      </trkpt>
      <trkpt lat="46.89289" lon="-1.83715">
        <ele>26</ele>
        <time>2024-12-16T20:17:52Z</time>
      </trkpt>
      <trkpt lat="46.89285" lon="-1.83627">
        <ele>29</ele>
        <time>2024-12-16T20:18:03Z</time>
      </trkpt>
      <trkpt lat="46.89281" lon="-1.83595">
        <ele>30</ele>
        <time>2024-12-16T20:18:07Z</time>
      </trkpt>
      <trkpt lat="46.89269" lon="-1.83559">
        <ele>31</ele>
        <time>2024-12-16T20:18:11Z</time>
      </trkpt>
      <trkpt lat="46.89247" lon="-1.83522">
        <ele>32</ele>
        <time>2024-12-16T20:18:17Z</time>
      </trkpt>
      <trkpt lat="46.89229" lon="-1.83503">
        <ele>33</ele>
        <time>2024-12-16T20:18:21Z</time>
      </trkpt>
      <trkpt lat="46.8919" lon="-1.83449">
        <ele>33</ele>
        <time>2024-12-16T20:18:31Z</time>
      </trkpt>
      <trkpt lat="46.8917" lon="-1.83407">
        <ele>33</ele>
        <time>2024-12-16T20:18:37Z</time>
      </trkpt>
      <trkpt lat="46.89156" lon="-1.83368">
        <ele>33</ele>
        <time>2024-12-16T20:18:42Z</time>
      </trkpt>
      <trkpt lat="46.89139" lon="-1.83384">
        <ele>32</ele>
        <time>2024-12-16T20:18:46Z</time>
      </trkpt>
      <trkpt lat="46.89156" lon="-1.83368">
        <ele>33</ele>
        <time>2024-12-16T20:18:50Z</time>
      </trkpt>
      <trkpt lat="46.8916" lon="-1.83326">
        <ele>33</ele>
        <time>2024-12-16T20:18:55Z</time>
      </trkpt>
      <trkpt lat="46.89169" lon="-1.83296">
        <ele>34</ele>
        <time>2024-12-16T20:18:59Z</time>
      </trkpt>
      <trkpt lat="46.89202" lon="-1.83182">
        <ele>34</ele>
        <time>2024-12-16T20:19:14Z</time>
      </trkpt>
      <trkpt lat="46.89206" lon="-1.83161">
        <ele>34</ele>
        <time>2024-12-16T20:19:17Z</time>
      </trkpt>
      <trkpt lat="46.8919" lon="-1.83159">
        <ele>33</ele>
        <time>2024-12-16T20:19:19Z</time>
      </trkpt>
      <trkpt lat="46.89186" lon="-1.83158">
        <ele>33</ele>
        <time>2024-12-16T20:19:20Z</time>
      </trkpt>
      <trkpt lat="46.89148" lon="-1.83154">
        <ele>33</ele>
        <time>2024-12-16T20:19:27Z</time>
      </trkpt>
      <trkpt lat="46.89131" lon="-1.83153">
        <ele>32</ele>
        <time>2024-12-16T20:19:30Z</time>
      </trkpt>
      <trkpt lat="46.89128" lon="-1.83153">
        <ele>32</ele>
        <time>2024-12-16T20:19:30Z</time>
      </trkpt>
      <trkpt lat="46.89121" lon="-1.83154">
        <ele>32</ele>
        <time>2024-12-16T20:19:32Z</time>
      </trkpt>
      <trkpt lat="46.8912" lon="-1.83103">
        <ele>31</ele>
        <time>2024-12-16T20:19:38Z</time>
      </trkpt>
      <trkpt lat="46.89111" lon="-1.83097">
        <ele>31</ele>
        <time>2024-12-16T20:19:40Z</time>
      </trkpt>
      <trkpt lat="46.891" lon="-1.83088">
        <ele>31</ele>
        <time>2024-12-16T20:19:42Z</time>
      </trkpt>
      <trkpt lat="46.89097" lon="-1.83084">
        <ele>31</ele>
        <time>2024-12-16T20:19:43Z</time>
      </trkpt>
      <trkpt lat="46.89086" lon="-1.83098">
        <ele>31</ele>
        <time>2024-12-16T20:19:45Z</time>
      </trkpt>
      <trkpt lat="46.89073" lon="-1.83107">
        <ele>31</ele>
        <time>2024-12-16T20:19:48Z</time>
      </trkpt>
      <trkpt lat="46.89041" lon="-1.83042">
        <ele>29</ele>
        <time>2024-12-16T20:19:58Z</time>
      </trkpt>
      <trkpt lat="46.89043" lon="-1.8303">
        <ele>28</ele>
        <time>2024-12-16T20:19:59Z</time>
      </trkpt>
      <trkpt lat="46.89022" lon="-1.83002">
        <ele>26</ele>
        <time>2024-12-16T20:20:04Z</time>
      </trkpt>
      <trkpt lat="46.88993" lon="-1.82971">
        <ele>25</ele>
        <time>2024-12-16T20:20:10Z</time>
      </trkpt>
      <trkpt lat="46.88975" lon="-1.8296">
        <ele>24</ele>
        <time>2024-12-16T20:20:14Z</time>
      </trkpt>
      <trkpt lat="46.88969" lon="-1.82952">
        <ele>24</ele>
        <time>2024-12-16T20:20:15Z</time>
      </trkpt>
      <trkpt lat="46.88961" lon="-1.82928">
        <ele>24</ele>
        <time>2024-12-16T20:20:19Z</time>
      </trkpt>
      <trkpt lat="46.88958" lon="-1.82915">
        <ele>23</ele>
        <time>2024-12-16T20:20:20Z</time>
      </trkpt>
      <trkpt lat="46.88953" lon="-1.8289">
        <ele>23</ele>
        <time>2024-12-16T20:20:23Z</time>
      </trkpt>
      <trkpt lat="46.88939" lon="-1.82824">
        <ele>23</ele>
        <time>2024-12-16T20:20:32Z</time>
      </trkpt>
      <trkpt lat="46.88934" lon="-1.82785">
        <ele>24</ele>
        <time>2024-12-16T20:20:37Z</time>
      </trkpt>
      <trkpt lat="46.88934" lon="-1.82773">
        <ele>25</ele>
        <time>2024-12-16T20:20:38Z</time>
      </trkpt>
      <trkpt lat="46.8893" lon="-1.82758">
        <ele>25</ele>
        <time>2024-12-16T20:20:40Z</time>
      </trkpt>
      <trkpt lat="46.8892" lon="-1.82689">
        <ele>26</ele>
        <time>2024-12-16T20:20:49Z</time>
      </trkpt>
      <trkpt lat="46.88911" lon="-1.82661">
        <ele>26</ele>
        <time>2024-12-16T20:20:52Z</time>
      </trkpt>
      <trkpt lat="46.88899" lon="-1.82626">
        <ele>26</ele>
        <time>2024-12-16T20:20:57Z</time>
      </trkpt>
      <trkpt lat="46.88878" lon="-1.82567">
        <ele>25</ele>
        <time>2024-12-16T20:21:05Z</time>
      </trkpt>
      <trkpt lat="46.88876" lon="-1.8256">
        <ele>24</ele>
        <time>2024-12-16T20:21:06Z</time>
      </trkpt>
      <trkpt lat="46.88852" lon="-1.82494">
        <ele>23</ele>
        <time>2024-12-16T20:21:15Z</time>
      </trkpt>
      <trkpt lat="46.88843" lon="-1.82475">
        <ele>23</ele>
        <time>2024-12-16T20:21:18Z</time>
      </trkpt>
      <trkpt lat="46.88823" lon="-1.82447">
        <ele>23</ele>
        <time>2024-12-16T20:21:23Z</time>
      </trkpt>
      <trkpt lat="46.88775" lon="-1.8241">
        <ele>25</ele>
        <time>2024-12-16T20:21:33Z</time>
      </trkpt>
      <trkpt lat="46.88761" lon="-1.82401">
        <ele>26</ele>
        <time>2024-12-16T20:21:35Z</time>
      </trkpt>
      <trkpt lat="46.88744" lon="-1.82394">
        <ele>26</ele>
        <time>2024-12-16T20:21:39Z</time>
      </trkpt>
      <trkpt lat="46.88682" lon="-1.82379">
        <ele>28</ele>
        <time>2024-12-16T20:21:50Z</time>
      </trkpt>
      <trkpt lat="46.88662" lon="-1.82375">
        <ele>28</ele>
        <time>2024-12-16T20:21:53Z</time>
      </trkpt>
      <trkpt lat="46.88649" lon="-1.82369">
        <ele>28</ele>
        <time>2024-12-16T20:21:56Z</time>
      </trkpt>
      <trkpt lat="46.88646" lon="-1.82367">
        <ele>28</ele>
        <time>2024-12-16T20:21:56Z</time>
      </trkpt>
      <trkpt lat="46.88625" lon="-1.82349">
        <ele>29</ele>
        <time>2024-12-16T20:22:01Z</time>
      </trkpt>
      <trkpt lat="46.88602" lon="-1.82324">
        <ele>29</ele>
        <time>2024-12-16T20:22:06Z</time>
      </trkpt>
      <trkpt lat="46.88579" lon="-1.82309">
        <ele>28</ele>
        <time>2024-12-16T20:22:10Z</time>
      </trkpt>
      <trkpt lat="46.88559" lon="-1.82309">
        <ele>29</ele>
        <time>2024-12-16T20:22:14Z</time>
      </trkpt>
      <trkpt lat="46.88553" lon="-1.8231">
        <ele>29</ele>
        <time>2024-12-16T20:22:15Z</time>
      </trkpt>
      <trkpt lat="46.88548" lon="-1.82311">
        <ele>29</ele>
        <time>2024-12-16T20:22:16Z</time>
      </trkpt>
      <trkpt lat="46.88451" lon="-1.82345">
        <ele>31</ele>
        <time>2024-12-16T20:22:34Z</time>
      </trkpt>
      <trkpt lat="46.88409" lon="-1.82357">
        <ele>32</ele>
        <time>2024-12-16T20:22:41Z</time>
      </trkpt>
      <trkpt lat="46.88226" lon="-1.82369">
        <ele>33</ele>
        <time>2024-12-16T20:23:14Z</time>
      </trkpt>
      <trkpt lat="46.88194" lon="-1.82373">
        <ele>33</ele>
        <time>2024-12-16T20:23:19Z</time>
      </trkpt>
      <trkpt lat="46.88069" lon="-1.82398">
        <ele>34</ele>
        <time>2024-12-16T20:23:42Z</time>
      </trkpt>
      <trkpt lat="46.87987" lon="-1.82424">
        <ele>34</ele>
        <time>2024-12-16T20:23:57Z</time>
      </trkpt>
      <trkpt lat="46.87924" lon="-1.82446">
        <ele>34</ele>
        <time>2024-12-16T20:24:08Z</time>
      </trkpt>
      <trkpt lat="46.87917" lon="-1.82448">
        <ele>34</ele>
        <time>2024-12-16T20:24:10Z</time>
      </trkpt>
      <trkpt lat="46.87792" lon="-1.82492">
        <ele>33</ele>
        <time>2024-12-16T20:24:32Z</time>
      </trkpt>
      <trkpt lat="46.87697" lon="-1.82524">
        <ele>33</ele>
        <time>2024-12-16T20:24:50Z</time>
      </trkpt>
      <trkpt lat="46.87677" lon="-1.82527">
        <ele>34</ele>
        <time>2024-12-16T20:24:53Z</time>
      </trkpt>
      <trkpt lat="46.87668" lon="-1.82524">
        <ele>34</ele>
        <time>2024-12-16T20:24:55Z</time>
      </trkpt>
      <trkpt lat="46.87652" lon="-1.82514">
        <ele>34</ele>
        <time>2024-12-16T20:24:58Z</time>
      </trkpt>
      <trkpt lat="46.87544" lon="-1.82415">
        <ele>36</ele>
        <time>2024-12-16T20:25:21Z</time>
      </trkpt>
      <trkpt lat="46.87504" lon="-1.82375">
        <ele>36</ele>
        <time>2024-12-16T20:25:29Z</time>
      </trkpt>
      <trkpt lat="46.8738" lon="-1.82238">
        <ele>33</ele>
        <time>2024-12-16T20:25:57Z</time>
      </trkpt>
      <trkpt lat="46.87292" lon="-1.82141">
        <ele>32</ele>
        <time>2024-12-16T20:26:17Z</time>
      </trkpt>
      <trkpt lat="46.87277" lon="-1.82122">
        <ele>32</ele>
        <time>2024-12-16T20:26:20Z</time>
      </trkpt>
      <trkpt lat="46.87256" lon="-1.82088">
        <ele>31</ele>
        <time>2024-12-16T20:26:26Z</time>
      </trkpt>
      <trkpt lat="46.87227" lon="-1.82028">
        <ele>31</ele>
        <time>2024-12-16T20:26:35Z</time>
      </trkpt>
      <trkpt lat="46.87196" lon="-1.81981">
        <ele>31</ele>
        <time>2024-12-16T20:26:43Z</time>
      </trkpt>
      <trkpt lat="46.87171" lon="-1.81955">
        <ele>32</ele>
        <time>2024-12-16T20:26:48Z</time>
      </trkpt>
      <trkpt lat="46.87133" lon="-1.81927">
        <ele>33</ele>
        <time>2024-12-16T20:26:56Z</time>
      </trkpt>
      <trkpt lat="46.87079" lon="-1.81896">
        <ele>34</ele>
        <time>2024-12-16T20:27:06Z</time>
      </trkpt>
      <trkpt lat="46.87058" lon="-1.81886">
        <ele>34</ele>
        <time>2024-12-16T20:27:10Z</time>
      </trkpt>
      <trkpt lat="46.87031" lon="-1.81879">
        <ele>34</ele>
        <time>2024-12-16T20:27:15Z</time>
      </trkpt>
      <trkpt lat="46.8701" lon="-1.81881">
        <ele>33</ele>
        <time>2024-12-16T20:27:19Z</time>
      </trkpt>
      <trkpt lat="46.86986" lon="-1.81882">
        <ele>33</ele>
        <time>2024-12-16T20:27:23Z</time>
      </trkpt>
      <trkpt lat="46.86966" lon="-1.81877">
        <ele>32</ele>
        <time>2024-12-16T20:27:26Z</time>
      </trkpt>
      <trkpt lat="46.86949" lon="-1.81863">
        <ele>32</ele>
        <time>2024-12-16T20:27:30Z</time>
      </trkpt>
      <trkpt lat="46.86935" lon="-1.81844">
        <ele>32</ele>
        <time>2024-12-16T20:27:33Z</time>
      </trkpt>
      <trkpt lat="46.86908" lon="-1.81795">
        <ele>34</ele>
        <time>2024-12-16T20:27:41Z</time>
      </trkpt>
      <trkpt lat="46.8688" lon="-1.81762">
        <ele>35</ele>
        <time>2024-12-16T20:27:47Z</time>
      </trkpt>
      <trkpt lat="46.86837" lon="-1.81722">
        <ele>37</ele>
        <time>2024-12-16T20:27:56Z</time>
      </trkpt>
      <trkpt lat="46.86423" lon="-1.81356">
        <ele>43</ele>
        <time>2024-12-16T20:29:23Z</time>
      </trkpt>
      <trkpt lat="46.8637" lon="-1.81309">
        <ele>43</ele>
        <time>2024-12-16T20:29:34Z</time>
      </trkpt>
      <trkpt lat="46.86302" lon="-1.81247">
        <ele>44</ele>
        <time>2024-12-16T20:29:48Z</time>
      </trkpt>
      <trkpt lat="46.86169" lon="-1.81104">
        <ele>46</ele>
        <time>2024-12-16T20:30:17Z</time>
      </trkpt>
      <trkpt lat="46.86115" lon="-1.81045">
        <ele>48</ele>
        <time>2024-12-16T20:30:29Z</time>
      </trkpt>
      <trkpt lat="46.85998" lon="-1.80919">
        <ele>48</ele>
        <time>2024-12-16T20:30:55Z</time>
      </trkpt>
      <trkpt lat="46.85987" lon="-1.80907">
        <ele>48</ele>
        <time>2024-12-16T20:30:57Z</time>
      </trkpt>
      <trkpt lat="46.85945" lon="-1.80864">
        <ele>49</ele>
        <time>2024-12-16T20:31:07Z</time>
      </trkpt>
      <trkpt lat="46.85889" lon="-1.80814">
        <ele>50</ele>
        <time>2024-12-16T20:31:18Z</time>
      </trkpt>
      <trkpt lat="46.85885" lon="-1.8081">
        <ele>50</ele>
        <time>2024-12-16T20:31:19Z</time>
      </trkpt>
      <trkpt lat="46.8583" lon="-1.80763">
        <ele>51</ele>
        <time>2024-12-16T20:31:30Z</time>
      </trkpt>
      <trkpt lat="46.85708" lon="-1.80658">
        <ele>51</ele>
        <time>2024-12-16T20:31:56Z</time>
      </trkpt>
      <trkpt lat="46.85601" lon="-1.80565">
        <ele>51</ele>
        <time>2024-12-16T20:32:18Z</time>
      </trkpt>
      <trkpt lat="46.85575" lon="-1.80541">
        <ele>51</ele>
        <time>2024-12-16T20:32:23Z</time>
      </trkpt>
      <trkpt lat="46.85519" lon="-1.80479">
        <ele>52</ele>
        <time>2024-12-16T20:32:36Z</time>
      </trkpt>
      <trkpt lat="46.85413" lon="-1.80351">
        <ele>51</ele>
        <time>2024-12-16T20:33:00Z</time>
      </trkpt>
      <trkpt lat="46.85359" lon="-1.80286">
        <ele>52</ele>
        <time>2024-12-16T20:33:13Z</time>
      </trkpt>
      <trkpt lat="46.85334" lon="-1.80258">
        <ele>52</ele>
        <time>2024-12-16T20:33:18Z</time>
      </trkpt>
      <trkpt lat="46.85264" lon="-1.80191">
        <ele>53</ele>
        <time>2024-12-16T20:33:33Z</time>
      </trkpt>
      <trkpt lat="46.85219" lon="-1.80143">
        <ele>54</ele>
        <time>2024-12-16T20:33:43Z</time>
      </trkpt>
      <trkpt lat="46.85085" lon="-1.79974">
        <ele>56</ele>
        <time>2024-12-16T20:34:15Z</time>
      </trkpt>
      <trkpt lat="46.84928" lon="-1.79775">
        <ele>55</ele>
        <time>2024-12-16T20:34:52Z</time>
      </trkpt>
      <trkpt lat="46.84902" lon="-1.79739">
        <ele>55</ele>
        <time>2024-12-16T20:34:58Z</time>
      </trkpt>
      <trkpt lat="46.84836" lon="-1.79648">
        <ele>54</ele>
        <time>2024-12-16T20:35:14Z</time>
      </trkpt>
      <trkpt lat="46.84661" lon="-1.79384">
        <ele>56</ele>
        <time>2024-12-16T20:35:59Z</time>
      </trkpt>
      <trkpt lat="46.84623" lon="-1.79336">
        <ele>56</ele>
        <time>2024-12-16T20:36:08Z</time>
      </trkpt>
      <trkpt lat="46.84549" lon="-1.79253">
        <ele>55</ele>
        <time>2024-12-16T20:36:24Z</time>
      </trkpt>
      <trkpt lat="46.84526" lon="-1.79226">
        <ele>55</ele>
        <time>2024-12-16T20:36:30Z</time>
      </trkpt>
      <trkpt lat="46.84495" lon="-1.79192">
        <ele>55</ele>
        <time>2024-12-16T20:36:36Z</time>
      </trkpt>
      <trkpt lat="46.8443" lon="-1.79119">
        <ele>56</ele>
        <time>2024-12-16T20:36:51Z</time>
      </trkpt>
      <trkpt lat="46.84414" lon="-1.79096">
        <ele>57</ele>
        <time>2024-12-16T20:36:55Z</time>
      </trkpt>
      <trkpt lat="46.844" lon="-1.79072">
        <ele>57</ele>
        <time>2024-12-16T20:36:59Z</time>
      </trkpt>
      <trkpt lat="46.84366" lon="-1.79002">
        <ele>57</ele>
        <time>2024-12-16T20:37:09Z</time>
      </trkpt>
      <trkpt lat="46.84153" lon="-1.78538">
        <ele>57</ele>
        <time>2024-12-16T20:38:17Z</time>
      </trkpt>
      <trkpt lat="46.84134" lon="-1.78499">
        <ele>57</ele>
        <time>2024-12-16T20:38:23Z</time>
      </trkpt>
      <trkpt lat="46.84119" lon="-1.78472">
        <ele>58</ele>
        <time>2024-12-16T20:38:27Z</time>
      </trkpt>
      <trkpt lat="46.84108" lon="-1.78453">
        <ele>58</ele>
        <time>2024-12-16T20:38:30Z</time>
      </trkpt>
      <trkpt lat="46.84033" lon="-1.78337">
        <ele>59</ele>
        <time>2024-12-16T20:38:50Z</time>
      </trkpt>
      <trkpt lat="46.83956" lon="-1.78223">
        <ele>61</ele>
        <time>2024-12-16T20:39:09Z</time>
      </trkpt>
      <trkpt lat="46.83937" lon="-1.78193">
        <ele>61</ele>
        <time>2024-12-16T20:39:14Z</time>
      </trkpt>
      <trkpt lat="46.83923" lon="-1.78168">
        <ele>61</ele>
        <time>2024-12-16T20:39:18Z</time>
      </trkpt>
      <trkpt lat="46.83896" lon="-1.78106">
        <ele>61</ele>
        <time>2024-12-16T20:39:27Z</time>
      </trkpt>
      <trkpt lat="46.83775" lon="-1.77795">
        <ele>60</ele>
        <time>2024-12-16T20:40:11Z</time>
      </trkpt>
      <trkpt lat="46.83722" lon="-1.7766">
        <ele>60</ele>
        <time>2024-12-16T20:40:30Z</time>
      </trkpt>
      <trkpt lat="46.83703" lon="-1.77614">
        <ele>60</ele>
        <time>2024-12-16T20:40:36Z</time>
      </trkpt>
      <trkpt lat="46.83534" lon="-1.77282">
        <ele>60</ele>
        <time>2024-12-16T20:41:27Z</time>
      </trkpt>
      <trkpt lat="46.83307" lon="-1.76892">
        <ele>61</ele>
        <time>2024-12-16T20:42:29Z</time>
      </trkpt>
      <trkpt lat="46.83301" lon="-1.76882">
        <ele>61</ele>
        <time>2024-12-16T20:42:31Z</time>
      </trkpt>
      <trkpt lat="46.83286" lon="-1.7686">
        <ele>61</ele>
        <time>2024-12-16T20:42:34Z</time>
      </trkpt>
      <trkpt lat="46.83273" lon="-1.76843">
        <ele>61</ele>
        <time>2024-12-16T20:42:37Z</time>
      </trkpt>
      <trkpt lat="46.83214" lon="-1.7678">
        <ele>61</ele>
        <time>2024-12-16T20:42:50Z</time>
      </trkpt>
      <trkpt lat="46.8311" lon="-1.76668">
        <ele>61</ele>
        <time>2024-12-16T20:43:13Z</time>
      </trkpt>
      <trkpt lat="46.83088" lon="-1.76637">
        <ele>61</ele>
        <time>2024-12-16T20:43:19Z</time>
      </trkpt>
      <trkpt lat="46.83101" lon="-1.76626">
        <ele>61</ele>
        <time>2024-12-16T20:43:22Z</time>
      </trkpt>
      <trkpt lat="46.83088" lon="-1.76637">
        <ele>61</ele>
        <time>2024-12-16T20:43:24Z</time>
      </trkpt>
      <trkpt lat="46.83074" lon="-1.76647">
        <ele>61</ele>
        <time>2024-12-16T20:43:27Z</time>
      </trkpt>
      <trkpt lat="46.83057" lon="-1.76654">
        <ele>60</ele>
        <time>2024-12-16T20:43:30Z</time>
      </trkpt>
      <trkpt lat="46.83053" lon="-1.7662">
        <ele>60</ele>
        <time>2024-12-16T20:43:34Z</time>
      </trkpt>
      <trkpt lat="46.83066" lon="-1.76604">
        <ele>61</ele>
        <time>2024-12-16T20:43:37Z</time>
      </trkpt>
      <trkpt lat="46.83009" lon="-1.76489">
        <ele>58</ele>
        <time>2024-12-16T20:43:55Z</time>
      </trkpt>
      <trkpt lat="46.83004" lon="-1.76478">
        <ele>59</ele>
        <time>2024-12-16T20:43:56Z</time>
      </trkpt>
      <trkpt lat="46.82978" lon="-1.76427">
        <ele>60</ele>
        <time>2024-12-16T20:44:04Z</time>
      </trkpt>
      <trkpt lat="46.82935" lon="-1.76341">
        <ele>61</ele>
        <time>2024-12-16T20:44:17Z</time>
      </trkpt>
      <trkpt lat="46.82915" lon="-1.76315">
        <ele>61</ele>
        <time>2024-12-16T20:44:22Z</time>
      </trkpt>
      <trkpt lat="46.82906" lon="-1.76307">
        <ele>60</ele>
        <time>2024-12-16T20:44:24Z</time>
      </trkpt>
      <trkpt lat="46.82849" lon="-1.76278">
        <ele>58</ele>
        <time>2024-12-16T20:44:34Z</time>
      </trkpt>
      <trkpt lat="46.82851" lon="-1.76267">
        <ele>58</ele>
        <time>2024-12-16T20:44:36Z</time>
      </trkpt>
      <trkpt lat="46.82761" lon="-1.76222">
        <ele>56</ele>
        <time>2024-12-16T20:44:53Z</time>
      </trkpt>
      <trkpt lat="46.82751" lon="-1.76217">
        <ele>56</ele>
        <time>2024-12-16T20:44:55Z</time>
      </trkpt>
      <trkpt lat="46.82735" lon="-1.76209">
        <ele>56</ele>
        <time>2024-12-16T20:44:58Z</time>
      </trkpt>
      <trkpt lat="46.82719" lon="-1.76202">
        <ele>56</ele>
        <time>2024-12-16T20:45:01Z</time>
      </trkpt>
      <trkpt lat="46.82714" lon="-1.76199">
        <ele>56</ele>
        <time>2024-12-16T20:45:01Z</time>
      </trkpt>
      <trkpt lat="46.82692" lon="-1.76186">
        <ele>56</ele>
        <time>2024-12-16T20:45:06Z</time>
      </trkpt>
      <trkpt lat="46.82686" lon="-1.76182">
        <ele>56</ele>
        <time>2024-12-16T20:45:07Z</time>
      </trkpt>
      <trkpt lat="46.82671" lon="-1.76178">
        <ele>56</ele>
        <time>2024-12-16T20:45:10Z</time>
      </trkpt>
      <trkpt lat="46.82661" lon="-1.76173">
        <ele>56</ele>
        <time>2024-12-16T20:45:11Z</time>
      </trkpt>
      <trkpt lat="46.82636" lon="-1.76162">
        <ele>55</ele>
        <time>2024-12-16T20:45:16Z</time>
      </trkpt>
      <trkpt lat="46.82585" lon="-1.7615">
        <ele>54</ele>
        <time>2024-12-16T20:45:25Z</time>
      </trkpt>
      <trkpt lat="46.82559" lon="-1.76143">
        <ele>55</ele>
        <time>2024-12-16T20:45:30Z</time>
      </trkpt>
      <trkpt lat="46.82555" lon="-1.76142">
        <ele>55</ele>
        <time>2024-12-16T20:45:31Z</time>
      </trkpt>
      <trkpt lat="46.8253" lon="-1.76143">
        <ele>55</ele>
        <time>2024-12-16T20:45:35Z</time>
      </trkpt>
      <trkpt lat="46.82507" lon="-1.76149">
        <ele>56</ele>
        <time>2024-12-16T20:45:39Z</time>
      </trkpt>
      <trkpt lat="46.82502" lon="-1.76152">
        <ele>57</ele>
        <time>2024-12-16T20:45:40Z</time>
      </trkpt>
      <trkpt lat="46.8249" lon="-1.76158">
        <ele>57</ele>
        <time>2024-12-16T20:45:43Z</time>
      </trkpt>
      <trkpt lat="46.82489" lon="-1.76159">
        <ele>57</ele>
        <time>2024-12-16T20:45:43Z</time>
      </trkpt>
      <trkpt lat="46.82458" lon="-1.76176">
        <ele>57</ele>
        <time>2024-12-16T20:45:49Z</time>
      </trkpt>
      <trkpt lat="46.82442" lon="-1.76188">
        <ele>57</ele>
        <time>2024-12-16T20:45:52Z</time>
      </trkpt>
      <trkpt lat="46.82408" lon="-1.76212">
        <ele>57</ele>
        <time>2024-12-16T20:45:59Z</time>
      </trkpt>
      <trkpt lat="46.82402" lon="-1.76216">
        <ele>57</ele>
        <time>2024-12-16T20:46:00Z</time>
      </trkpt>
      <trkpt lat="46.82373" lon="-1.76237">
        <ele>56</ele>
        <time>2024-12-16T20:46:05Z</time>
      </trkpt>
      <trkpt lat="46.82343" lon="-1.76255">
        <ele>56</ele>
        <time>2024-12-16T20:46:11Z</time>
      </trkpt>
      <trkpt lat="46.82321" lon="-1.7628">
        <ele>54</ele>
        <time>2024-12-16T20:46:16Z</time>
      </trkpt>
      <trkpt lat="46.82294" lon="-1.76309">
        <ele>52</ele>
        <time>2024-12-16T20:46:22Z</time>
      </trkpt>
      <trkpt lat="46.82279" lon="-1.76322">
        <ele>51</ele>
        <time>2024-12-16T20:46:25Z</time>
      </trkpt>
      <trkpt lat="46.82222" lon="-1.76351">
        <ele>49</ele>
        <time>2024-12-16T20:46:36Z</time>
      </trkpt>
      <trkpt lat="46.82175" lon="-1.76369">
        <ele>49</ele>
        <time>2024-12-16T20:46:45Z</time>
      </trkpt>
      <trkpt lat="46.82173" lon="-1.76362">
        <ele>49</ele>
        <time>2024-12-16T20:46:46Z</time>
      </trkpt>
      <trkpt lat="46.82172" lon="-1.76358">
        <ele>49</ele>
        <time>2024-12-16T20:46:46Z</time>
      </trkpt>
      <trkpt lat="46.82168" lon="-1.76341">
        <ele>49</ele>
        <time>2024-12-16T20:46:48Z</time>
      </trkpt>
      <trkpt lat="46.82172" lon="-1.76358">
        <ele>49</ele>
        <time>2024-12-16T20:46:50Z</time>
      </trkpt>
      <trkpt lat="46.82173" lon="-1.76362">
        <ele>49</ele>
        <time>2024-12-16T20:46:51Z</time>
      </trkpt>
      <trkpt lat="46.82089" lon="-1.76381">
        <ele>43</ele>
        <time>2024-12-16T20:47:06Z</time>
      </trkpt>
      <trkpt lat="46.82089" lon="-1.76386">
        <ele>43</ele>
        <time>2024-12-16T20:47:07Z</time>
      </trkpt>
      <trkpt lat="46.82086" lon="-1.76395">
        <ele>42</ele>
        <time>2024-12-16T20:47:08Z</time>
      </trkpt>
      <trkpt lat="46.82082" lon="-1.76399">
        <ele>42</ele>
        <time>2024-12-16T20:47:09Z</time>
      </trkpt>
      <trkpt lat="46.82077" lon="-1.76396">
        <ele>42</ele>
        <time>2024-12-16T20:47:10Z</time>
      </trkpt>
      <trkpt lat="46.82072" lon="-1.764">
        <ele>42</ele>
        <time>2024-12-16T20:47:11Z</time>
      </trkpt>
      <trkpt lat="46.82066" lon="-1.76424">
        <ele>41</ele>
        <time>2024-12-16T20:47:14Z</time>
      </trkpt>
      <trkpt lat="46.8205" lon="-1.76452">
        <ele>41</ele>
        <time>2024-12-16T20:47:18Z</time>
      </trkpt>
      <trkpt lat="46.82024" lon="-1.76484">
        <ele>40</ele>
        <time>2024-12-16T20:47:24Z</time>
      </trkpt>
      <trkpt lat="46.82008" lon="-1.765">
        <ele>39</ele>
        <time>2024-12-16T20:47:28Z</time>
      </trkpt>
      <trkpt lat="46.82003" lon="-1.76496">
        <ele>39</ele>
        <time>2024-12-16T20:47:29Z</time>
      </trkpt>
      <trkpt lat="46.81977" lon="-1.76486">
        <ele>38</ele>
        <time>2024-12-16T20:47:34Z</time>
      </trkpt>
      <trkpt lat="46.81967" lon="-1.76486">
        <ele>38</ele>
        <time>2024-12-16T20:47:35Z</time>
      </trkpt>
      <trkpt lat="46.81951" lon="-1.76487">
        <ele>38</ele>
        <time>2024-12-16T20:47:38Z</time>
      </trkpt>
      <trkpt lat="46.81946" lon="-1.76501">
        <ele>38</ele>
        <time>2024-12-16T20:47:40Z</time>
      </trkpt>
      <trkpt lat="46.81945" lon="-1.76509">
        <ele>38</ele>
        <time>2024-12-16T20:47:41Z</time>
      </trkpt>
      <trkpt lat="46.81951" lon="-1.7654">
        <ele>38</ele>
        <time>2024-12-16T20:47:45Z</time>
      </trkpt>
      <trkpt lat="46.81947" lon="-1.76544">
        <ele>37</ele>
        <time>2024-12-16T20:47:46Z</time>
      </trkpt>
      <trkpt lat="46.81942" lon="-1.76558">
        <ele>37</ele>
        <time>2024-12-16T20:47:48Z</time>
      </trkpt>
      <trkpt lat="46.81943" lon="-1.76572">
        <ele>37</ele>
        <time>2024-12-16T20:47:50Z</time>
      </trkpt>
      <trkpt lat="46.81949" lon="-1.76583">
        <ele>37</ele>
        <time>2024-12-16T20:47:51Z</time>
      </trkpt>
      <trkpt lat="46.81934" lon="-1.76597">
        <ele>37</ele>
        <time>2024-12-16T20:47:54Z</time>
      </trkpt>
      <trkpt lat="46.81865" lon="-1.76626">
        <ele>36</ele>
        <time>2024-12-16T20:48:07Z</time>
      </trkpt>
      <trkpt lat="46.81845" lon="-1.76637">
        <ele>35</ele>
        <time>2024-12-16T20:48:11Z</time>
      </trkpt>
      <trkpt lat="46.81779" lon="-1.76692">
        <ele>34</ele>
        <time>2024-12-16T20:48:25Z</time>
      </trkpt>
      <trkpt lat="46.81766" lon="-1.76703">
        <ele>34</ele>
        <time>2024-12-16T20:48:27Z</time>
      </trkpt>
      <trkpt lat="46.81701" lon="-1.76778">
        <ele>32</ele>
        <time>2024-12-16T20:48:42Z</time>
      </trkpt>
      <trkpt lat="46.81697" lon="-1.76784">
        <ele>32</ele>
        <time>2024-12-16T20:48:43Z</time>
      </trkpt>
      <trkpt lat="46.81696" lon="-1.76796">
        <ele>32</ele>
        <time>2024-12-16T20:48:44Z</time>
      </trkpt>
      <trkpt lat="46.81689" lon="-1.76785">
        <ele>31</ele>
        <time>2024-12-16T20:48:46Z</time>
      </trkpt>
      <trkpt lat="46.81676" lon="-1.76799">
        <ele>31</ele>
        <time>2024-12-16T20:48:49Z</time>
      </trkpt>
      <trkpt lat="46.81572" lon="-1.7692">
        <ele>27</ele>
        <time>2024-12-16T20:49:13Z</time>
      </trkpt>
      <trkpt lat="46.81316" lon="-1.77212">
        <ele>22</ele>
        <time>2024-12-16T20:50:11Z</time>
      </trkpt>
      <trkpt lat="46.8127" lon="-1.77263">
        <ele>23</ele>
        <time>2024-12-16T20:50:21Z</time>
      </trkpt>
      <trkpt lat="46.81243" lon="-1.7729">
        <ele>22</ele>
        <time>2024-12-16T20:50:27Z</time>
      </trkpt>
      <trkpt lat="46.81201" lon="-1.77323">
        <ele>22</ele>
        <time>2024-12-16T20:50:35Z</time>
      </trkpt>
      <trkpt lat="46.81154" lon="-1.77354">
        <ele>21</ele>
        <time>2024-12-16T20:50:44Z</time>
      </trkpt>
      <trkpt lat="46.81135" lon="-1.77367">
        <ele>21</ele>
        <time>2024-12-16T20:50:48Z</time>
      </trkpt>
      <trkpt lat="46.8098" lon="-1.77472">
        <ele>25</ele>
        <time>2024-12-16T20:51:19Z</time>
      </trkpt>
      <trkpt lat="46.80976" lon="-1.77475">
        <ele>25</ele>
        <time>2024-12-16T20:51:19Z</time>
      </trkpt>
      <trkpt lat="46.80903" lon="-1.77524">
        <ele>26</ele>
        <time>2024-12-16T20:51:34Z</time>
      </trkpt>
      <trkpt lat="46.80821" lon="-1.77579">
        <ele>25</ele>
        <time>2024-12-16T20:51:50Z</time>
      </trkpt>
      <trkpt lat="46.80782" lon="-1.7761">
        <ele>25</ele>
        <time>2024-12-16T20:51:58Z</time>
      </trkpt>
      <trkpt lat="46.80763" lon="-1.77629">
        <ele>25</ele>
        <time>2024-12-16T20:52:02Z</time>
      </trkpt>
      <trkpt lat="46.80622" lon="-1.7782">
        <ele>21</ele>
        <time>2024-12-16T20:52:36Z</time>
      </trkpt>
      <trkpt lat="46.80561" lon="-1.77902">
        <ele>20</ele>
        <time>2024-12-16T20:52:51Z</time>
      </trkpt>
      <trkpt lat="46.80555" lon="-1.77911">
        <ele>20</ele>
        <time>2024-12-16T20:52:52Z</time>
      </trkpt>
      <trkpt lat="46.80504" lon="-1.77981">
        <ele>23</ele>
        <time>2024-12-16T20:53:05Z</time>
      </trkpt>
      <trkpt lat="46.80477" lon="-1.78018">
        <ele>24</ele>
        <time>2024-12-16T20:53:11Z</time>
      </trkpt>
      <trkpt lat="46.8043" lon="-1.78083">
        <ele>25</ele>
        <time>2024-12-16T20:53:23Z</time>
      </trkpt>
      <trkpt lat="46.80412" lon="-1.78113">
        <ele>25</ele>
        <time>2024-12-16T20:53:28Z</time>
      </trkpt>
      <trkpt lat="46.80395" lon="-1.78146">
        <ele>25</ele>
        <time>2024-12-16T20:53:33Z</time>
      </trkpt>
      <trkpt lat="46.80252" lon="-1.78478">
        <ele>26</ele>
        <time>2024-12-16T20:54:20Z</time>
      </trkpt>
      <trkpt lat="46.8022" lon="-1.78554">
        <ele>24</ele>
        <time>2024-12-16T20:54:31Z</time>
      </trkpt>
      <trkpt lat="46.80033" lon="-1.78993">
        <ele>26</ele>
        <time>2024-12-16T20:55:34Z</time>
      </trkpt>
      <trkpt lat="46.80025" lon="-1.79012">
        <ele>26</ele>
        <time>2024-12-16T20:55:37Z</time>
      </trkpt>
      <trkpt lat="46.8001" lon="-1.7905">
        <ele>26</ele>
        <time>2024-12-16T20:55:42Z</time>
      </trkpt>
      <trkpt lat="46.79955" lon="-1.79181">
        <ele>27</ele>
        <time>2024-12-16T20:56:01Z</time>
      </trkpt>
      <trkpt lat="46.79926" lon="-1.79261">
        <ele>27</ele>
        <time>2024-12-16T20:56:12Z</time>
      </trkpt>
      <trkpt lat="46.79895" lon="-1.79354">
        <ele>27</ele>
        <time>2024-12-16T20:56:25Z</time>
      </trkpt>
      <trkpt lat="46.79881" lon="-1.79393">
        <ele>27</ele>
        <time>2024-12-16T20:56:30Z</time>
      </trkpt>
      <trkpt lat="46.79842" lon="-1.79507">
        <ele>26</ele>
        <time>2024-12-16T20:56:46Z</time>
      </trkpt>
      <trkpt lat="46.7983" lon="-1.79537">
        <ele>25</ele>
        <time>2024-12-16T20:56:50Z</time>
      </trkpt>
      <trkpt lat="46.79816" lon="-1.79569">
        <ele>24</ele>
        <time>2024-12-16T20:56:54Z</time>
      </trkpt>
      <trkpt lat="46.79639" lon="-1.79903">
        <ele>29</ele>
        <time>2024-12-16T20:57:46Z</time>
      </trkpt>
      <trkpt lat="46.79475" lon="-1.80215">
        <ele>26</ele>
        <time>2024-12-16T20:58:34Z</time>
      </trkpt>
      <trkpt lat="46.79451" lon="-1.80258">
        <ele>25</ele>
        <time>2024-12-16T20:58:40Z</time>
      </trkpt>
      <trkpt lat="46.79415" lon="-1.80304">
        <ele>25</ele>
        <time>2024-12-16T20:58:49Z</time>
      </trkpt>
      <trkpt lat="46.79213" lon="-1.80517">
        <ele>28</ele>
        <time>2024-12-16T20:59:33Z</time>
      </trkpt>
      <trkpt lat="46.79198" lon="-1.80533">
        <ele>28</ele>
        <time>2024-12-16T20:59:37Z</time>
      </trkpt>
      <trkpt lat="46.78856" lon="-1.80892">
        <ele>30</ele>
        <time>2024-12-16T21:00:52Z</time>
      </trkpt>
      <trkpt lat="46.78852" lon="-1.80896">
        <ele>30</ele>
        <time>2024-12-16T21:00:52Z</time>
      </trkpt>
      <trkpt lat="46.78623" lon="-1.81135">
        <ele>29</ele>
        <time>2024-12-16T21:01:43Z</time>
      </trkpt>
      <trkpt lat="46.78526" lon="-1.81238">
        <ele>28</ele>
        <time>2024-12-16T21:02:04Z</time>
      </trkpt>
      <trkpt lat="46.78495" lon="-1.8127">
        <ele>27</ele>
        <time>2024-12-16T21:02:11Z</time>
      </trkpt>
      <trkpt lat="46.78078" lon="-1.81705">
        <ele>30</ele>
        <time>2024-12-16T21:03:42Z</time>
      </trkpt>
      <trkpt lat="46.77652" lon="-1.82147">
        <ele>31</ele>
        <time>2024-12-16T21:05:15Z</time>
      </trkpt>
      <trkpt lat="46.77488" lon="-1.8232">
        <ele>28</ele>
        <time>2024-12-16T21:05:51Z</time>
      </trkpt>
      <trkpt lat="46.77267" lon="-1.82549">
        <ele>27</ele>
        <time>2024-12-16T21:06:39Z</time>
      </trkpt>
      <trkpt lat="46.77228" lon="-1.8259">
        <ele>27</ele>
        <time>2024-12-16T21:06:48Z</time>
      </trkpt>
      <trkpt lat="46.77145" lon="-1.82678">
        <ele>26</ele>
        <time>2024-12-16T21:07:06Z</time>
      </trkpt>
      <trkpt lat="46.77139" lon="-1.82684">
        <ele>27</ele>
        <time>2024-12-16T21:07:07Z</time>
      </trkpt>
      <trkpt lat="46.77091" lon="-1.82733">
        <ele>28</ele>
        <time>2024-12-16T21:07:17Z</time>
      </trkpt>
      <trkpt lat="46.77042" lon="-1.82783">
        <ele>27</ele>
        <time>2024-12-16T21:07:28Z</time>
      </trkpt>
      <trkpt lat="46.77021" lon="-1.82805">
        <ele>27</ele>
        <time>2024-12-16T21:07:33Z</time>
      </trkpt>
      <trkpt lat="46.76968" lon="-1.82859">
        <ele>26</ele>
        <time>2024-12-16T21:07:44Z</time>
      </trkpt>
      <trkpt lat="46.76938" lon="-1.82894">
        <ele>25</ele>
        <time>2024-12-16T21:07:51Z</time>
      </trkpt>
      <trkpt lat="46.76905" lon="-1.82941">
        <ele>23</ele>
        <time>2024-12-16T21:07:59Z</time>
      </trkpt>
      <trkpt lat="46.76877" lon="-1.82986">
        <ele>20</ele>
        <time>2024-12-16T21:08:07Z</time>
      </trkpt>
      <trkpt lat="46.76862" lon="-1.83014">
        <ele>19</ele>
        <time>2024-12-16T21:08:11Z</time>
      </trkpt>
      <trkpt lat="46.76833" lon="-1.83073">
        <ele>17</ele>
        <time>2024-12-16T21:08:20Z</time>
      </trkpt>
      <trkpt lat="46.76814" lon="-1.83126">
        <ele>18</ele>
        <time>2024-12-16T21:08:27Z</time>
      </trkpt>
      <trkpt lat="46.76797" lon="-1.8318">
        <ele>19</ele>
        <time>2024-12-16T21:08:34Z</time>
      </trkpt>
      <trkpt lat="46.76781" lon="-1.83226">
        <ele>19</ele>
        <time>2024-12-16T21:08:41Z</time>
      </trkpt>
      <trkpt lat="46.76751" lon="-1.83294">
        <ele>19</ele>
        <time>2024-12-16T21:08:51Z</time>
      </trkpt>
      <trkpt lat="46.76729" lon="-1.83333">
        <ele>19</ele>
        <time>2024-12-16T21:08:57Z</time>
      </trkpt>
      <trkpt lat="46.76707" lon="-1.83368">
        <ele>19</ele>
        <time>2024-12-16T21:09:02Z</time>
      </trkpt>
      <trkpt lat="46.76696" lon="-1.83382">
        <ele>19</ele>
        <time>2024-12-16T21:09:05Z</time>
      </trkpt>
      <trkpt lat="46.76684" lon="-1.83399">
        <ele>19</ele>
        <time>2024-12-16T21:09:08Z</time>
      </trkpt>
      <trkpt lat="46.76639" lon="-1.8345">
        <ele>18</ele>
        <time>2024-12-16T21:09:18Z</time>
      </trkpt>
      <trkpt lat="46.76594" lon="-1.83486">
        <ele>17</ele>
        <time>2024-12-16T21:09:27Z</time>
      </trkpt>
      <trkpt lat="46.76565" lon="-1.83504">
        <ele>17</ele>
        <time>2024-12-16T21:09:33Z</time>
      </trkpt>
      <trkpt lat="46.76558" lon="-1.83508">
        <ele>17</ele>
        <time>2024-12-16T21:09:34Z</time>
      </trkpt>
      <trkpt lat="46.76522" lon="-1.8353">
        <ele>16</ele>
        <time>2024-12-16T21:09:41Z</time>
      </trkpt>
      <trkpt lat="46.76449" lon="-1.83571">
        <ele>17</ele>
        <time>2024-12-16T21:09:55Z</time>
      </trkpt>
      <trkpt lat="46.7637" lon="-1.83618">
        <ele>18</ele>
        <time>2024-12-16T21:10:10Z</time>
      </trkpt>
      <trkpt lat="46.76348" lon="-1.83634">
        <ele>19</ele>
        <time>2024-12-16T21:10:15Z</time>
      </trkpt>
      <trkpt lat="46.76338" lon="-1.83641">
        <ele>19</ele>
        <time>2024-12-16T21:10:17Z</time>
      </trkpt>
      <trkpt lat="46.7632" lon="-1.83655">
        <ele>19</ele>
        <time>2024-12-16T21:10:20Z</time>
      </trkpt>
      <trkpt lat="46.76287" lon="-1.83667">
        <ele>19</ele>
        <time>2024-12-16T21:10:26Z</time>
      </trkpt>
      <trkpt lat="46.76263" lon="-1.83671">
        <ele>19</ele>
        <time>2024-12-16T21:10:31Z</time>
      </trkpt>
      <trkpt lat="46.76243" lon="-1.8367">
        <ele>19</ele>
        <time>2024-12-16T21:10:34Z</time>
      </trkpt>
      <trkpt lat="46.76243" lon="-1.83643">
        <ele>18</ele>
        <time>2024-12-16T21:10:37Z</time>
      </trkpt>
      <trkpt lat="46.76236" lon="-1.83608">
        <ele>18</ele>
        <time>2024-12-16T21:10:42Z</time>
      </trkpt>
      <trkpt lat="46.76236" lon="-1.83603">
        <ele>18</ele>
        <time>2024-12-16T21:10:43Z</time>
      </trkpt>
      <trkpt lat="46.7621" lon="-1.83506">
        <ele>17</ele>
        <time>2024-12-16T21:10:55Z</time>
      </trkpt>
      <trkpt lat="46.76199" lon="-1.83465">
        <ele>17</ele>
        <time>2024-12-16T21:11:01Z</time>
      </trkpt>
      <trkpt lat="46.76191" lon="-1.83433">
        <ele>17</ele>
        <time>2024-12-16T21:11:05Z</time>
      </trkpt>
      <trkpt lat="46.76188" lon="-1.8342">
        <ele>17</ele>
        <time>2024-12-16T21:11:06Z</time>
      </trkpt>
      <trkpt lat="46.76182" lon="-1.83398">
        <ele>17</ele>
        <time>2024-12-16T21:11:09Z</time>
      </trkpt>
      <trkpt lat="46.76165" lon="-1.83333">
        <ele>16</ele>
        <time>2024-12-16T21:11:18Z</time>
      </trkpt>
      <trkpt lat="46.76157" lon="-1.83302">
        <ele>16</ele>
        <time>2024-12-16T21:11:22Z</time>
      </trkpt>
      <trkpt lat="46.76155" lon="-1.83292">
        <ele>15</ele>
        <time>2024-12-16T21:11:23Z</time>
      </trkpt>
      <trkpt lat="46.76148" lon="-1.8327">
        <ele>15</ele>
        <time>2024-12-16T21:11:26Z</time>
      </trkpt>
      <trkpt lat="46.76137" lon="-1.83228">
        <ele>14</ele>
        <time>2024-12-16T21:11:32Z</time>
      </trkpt>
      <trkpt lat="46.76105" lon="-1.83101">
        <ele>13</ele>
        <time>2024-12-16T21:11:48Z</time>
      </trkpt>
      <trkpt lat="46.76065" lon="-1.82945">
        <ele>8</ele>
        <time>2024-12-16T21:12:08Z</time>
      </trkpt>
      <trkpt lat="46.76062" lon="-1.82933">
        <ele>8</ele>
        <time>2024-12-16T21:12:10Z</time>
      </trkpt>
      <trkpt lat="46.76023" lon="-1.82782">
        <ele>8</ele>
        <time>2024-12-16T21:12:30Z</time>
      </trkpt>
      <trkpt lat="46.76006" lon="-1.82714">
        <ele>8</ele>
        <time>2024-12-16T21:12:38Z</time>
      </trkpt>
      <trkpt lat="46.75974" lon="-1.82595">
        <ele>8</ele>
        <time>2024-12-16T21:12:54Z</time>
      </trkpt>
      <trkpt lat="46.75921" lon="-1.82386">
        <ele>7</ele>
        <time>2024-12-16T21:13:21Z</time>
      </trkpt>
      <trkpt lat="46.75905" lon="-1.8232">
        <ele>7</ele>
        <time>2024-12-16T21:13:30Z</time>
      </trkpt>
      <trkpt lat="46.75892" lon="-1.82274">
        <ele>7</ele>
        <time>2024-12-16T21:13:36Z</time>
      </trkpt>
      <trkpt lat="46.75882" lon="-1.82248">
        <ele>7</ele>
        <time>2024-12-16T21:13:39Z</time>
      </trkpt>
      <trkpt lat="46.75862" lon="-1.82201">
        <ele>7</ele>
        <time>2024-12-16T21:13:46Z</time>
      </trkpt>
      <trkpt lat="46.75838" lon="-1.82159">
        <ele>7</ele>
        <time>2024-12-16T21:13:53Z</time>
      </trkpt>
      <trkpt lat="46.75823" lon="-1.82138">
        <ele>7</ele>
        <time>2024-12-16T21:13:56Z</time>
      </trkpt>
      <trkpt lat="46.75809" lon="-1.8212">
        <ele>7</ele>
        <time>2024-12-16T21:14:00Z</time>
      </trkpt>
      <trkpt lat="46.75787" lon="-1.82097">
        <ele>7</ele>
        <time>2024-12-16T21:14:05Z</time>
      </trkpt>
      <trkpt lat="46.757" lon="-1.82024">
        <ele>6</ele>
        <time>2024-12-16T21:14:22Z</time>
      </trkpt>
      <trkpt lat="46.75691" lon="-1.82015">
        <ele>6</ele>
        <time>2024-12-16T21:14:24Z</time>
      </trkpt>
      <trkpt lat="46.75637" lon="-1.81971">
        <ele>6</ele>
        <time>2024-12-16T21:14:35Z</time>
      </trkpt>
      <trkpt lat="46.75581" lon="-1.81925">
        <ele>7</ele>
        <time>2024-12-16T21:14:47Z</time>
      </trkpt>
      <trkpt lat="46.75576" lon="-1.8192">
        <ele>7</ele>
        <time>2024-12-16T21:14:48Z</time>
      </trkpt>
      <trkpt lat="46.75528" lon="-1.81874">
        <ele>8</ele>
        <time>2024-12-16T21:14:58Z</time>
      </trkpt>
      <trkpt lat="46.75494" lon="-1.81831">
        <ele>9</ele>
        <time>2024-12-16T21:15:06Z</time>
      </trkpt>
      <trkpt lat="46.75478" lon="-1.81808">
        <ele>9</ele>
        <time>2024-12-16T21:15:10Z</time>
      </trkpt>
      <trkpt lat="46.75451" lon="-1.81763">
        <ele>9</ele>
        <time>2024-12-16T21:15:17Z</time>
      </trkpt>
      <trkpt lat="46.7544" lon="-1.8174">
        <ele>9</ele>
        <time>2024-12-16T21:15:21Z</time>
      </trkpt>
      <trkpt lat="46.754" lon="-1.81649">
        <ele>9</ele>
        <time>2024-12-16T21:15:34Z</time>
      </trkpt>
      <trkpt lat="46.75329" lon="-1.81488">
        <ele>9</ele>
        <time>2024-12-16T21:15:57Z</time>
      </trkpt>
      <trkpt lat="46.75244" lon="-1.81295">
        <ele>10</ele>
        <time>2024-12-16T21:16:25Z</time>
      </trkpt>
      <trkpt lat="46.75231" lon="-1.8126">
        <ele>10</ele>
        <time>2024-12-16T21:16:30Z</time>
      </trkpt>
      <trkpt lat="46.75217" lon="-1.81212">
        <ele>10</ele>
        <time>2024-12-16T21:16:37Z</time>
      </trkpt>
      <trkpt lat="46.75212" lon="-1.81196">
        <ele>10</ele>
        <time>2024-12-16T21:16:39Z</time>
      </trkpt>
      <trkpt lat="46.7519" lon="-1.81074">
        <ele>10</ele>
        <time>2024-12-16T21:16:54Z</time>
      </trkpt>
      <trkpt lat="46.75167" lon="-1.80933">
        <ele>11</ele>
        <time>2024-12-16T21:17:12Z</time>
      </trkpt>
      <trkpt lat="46.75156" lon="-1.80863">
        <ele>11</ele>
        <time>2024-12-16T21:17:21Z</time>
      </trkpt>
      <trkpt lat="46.75103" lon="-1.8053">
        <ele>14</ele>
        <time>2024-12-16T21:18:02Z</time>
      </trkpt>
      <trkpt lat="46.75096" lon="-1.80489">
        <ele>15</ele>
        <time>2024-12-16T21:18:07Z</time>
      </trkpt>
      <trkpt lat="46.75037" lon="-1.80123">
        <ele>12</ele>
        <time>2024-12-16T21:18:53Z</time>
      </trkpt>
      <trkpt lat="46.75031" lon="-1.80085">
        <ele>12</ele>
        <time>2024-12-16T21:18:58Z</time>
      </trkpt>
      <trkpt lat="46.75017" lon="-1.79995">
        <ele>13</ele>
        <time>2024-12-16T21:19:09Z</time>
      </trkpt>
      <trkpt lat="46.75056" lon="-1.79971">
        <ele>14</ele>
        <time>2024-12-16T21:19:17Z</time>
      </trkpt>
      <trkpt lat="46.75101" lon="-1.79949">
        <ele>14</ele>
        <time>2024-12-16T21:19:25Z</time>
      </trkpt>
      <trkpt lat="46.7511" lon="-1.79943">
        <ele>14</ele>
        <time>2024-12-16T21:19:27Z</time>
      </trkpt>
      <trkpt lat="46.7512" lon="-1.79928">
        <ele>15</ele>
        <time>2024-12-16T21:19:29Z</time>
      </trkpt>
      <trkpt lat="46.75134" lon="-1.79893">
        <ele>15</ele>
        <time>2024-12-16T21:19:34Z</time>
      </trkpt>
      <trkpt lat="46.75158" lon="-1.79815">
        <ele>16</ele>
        <time>2024-12-16T21:19:45Z</time>
      </trkpt>
      <trkpt lat="46.75172" lon="-1.79759">
        <ele>17</ele>
        <time>2024-12-16T21:19:52Z</time>
      </trkpt>
      <trkpt lat="46.75184" lon="-1.79726">
        <ele>17</ele>
        <time>2024-12-16T21:19:57Z</time>
      </trkpt>
      <trkpt lat="46.75221" lon="-1.7966">
        <ele>17</ele>
        <time>2024-12-16T21:20:07Z</time>
      </trkpt>
      <trkpt lat="46.75237" lon="-1.79611">
        <ele>16</ele>
        <time>2024-12-16T21:20:14Z</time>
      </trkpt>
      <trkpt lat="46.75248" lon="-1.79563">
        <ele>14</ele>
        <time>2024-12-16T21:20:20Z</time>
      </trkpt>
      <trkpt lat="46.75253" lon="-1.79526">
        <ele>14</ele>
        <time>2024-12-16T21:20:24Z</time>
      </trkpt>
      <trkpt lat="46.7526" lon="-1.79448">
        <ele>13</ele>
        <time>2024-12-16T21:20:34Z</time>
      </trkpt>
      <trkpt lat="46.75269" lon="-1.79406">
        <ele>12</ele>
        <time>2024-12-16T21:20:39Z</time>
      </trkpt>
      <trkpt lat="46.7528" lon="-1.79372">
        <ele>12</ele>
        <time>2024-12-16T21:20:44Z</time>
      </trkpt>
      <trkpt lat="46.75292" lon="-1.79342">
        <ele>12</ele>
        <time>2024-12-16T21:20:48Z</time>
      </trkpt>
      <trkpt lat="46.75309" lon="-1.7931">
        <ele>11</ele>
        <time>2024-12-16T21:20:53Z</time>
      </trkpt>
      <trkpt lat="46.75333" lon="-1.79277">
        <ele>11</ele>
        <time>2024-12-16T21:20:59Z</time>
      </trkpt>
      <trkpt lat="46.75341" lon="-1.79261">
        <ele>12</ele>
        <time>2024-12-16T21:21:01Z</time>
      </trkpt>
      <trkpt lat="46.75363" lon="-1.79185">
        <ele>15</ele>
        <time>2024-12-16T21:21:11Z</time>
      </trkpt>
      <trkpt lat="46.75364" lon="-1.79169">
        <ele>15</ele>
        <time>2024-12-16T21:21:13Z</time>
      </trkpt>
      <trkpt lat="46.75367" lon="-1.79167">
        <ele>15</ele>
        <time>2024-12-16T21:21:14Z</time>
      </trkpt>
      <trkpt lat="46.75386" lon="-1.79145">
        <ele>15</ele>
        <time>2024-12-16T21:21:18Z</time>
      </trkpt>
      <trkpt lat="46.75457" lon="-1.79039">
        <ele>16</ele>
        <time>2024-12-16T21:21:36Z</time>
      </trkpt>
      <trkpt lat="46.7547" lon="-1.79023">
        <ele>17</ele>
        <time>2024-12-16T21:21:39Z</time>
      </trkpt>
      <trkpt lat="46.75489" lon="-1.79002">
        <ele>18</ele>
        <time>2024-12-16T21:21:44Z</time>
      </trkpt>
      <trkpt lat="46.75521" lon="-1.78946">
        <ele>18</ele>
        <time>2024-12-16T21:21:53Z</time>
      </trkpt>
      <trkpt lat="46.75574" lon="-1.78865">
        <ele>21</ele>
        <time>2024-12-16T21:22:06Z</time>
      </trkpt>
      <trkpt lat="46.75601" lon="-1.7884">
        <ele>22</ele>
        <time>2024-12-16T21:22:12Z</time>
      </trkpt>
      <trkpt lat="46.75768" lon="-1.78711">
        <ele>32</ele>
        <time>2024-12-16T21:22:46Z</time>
        <extensions>
          <visugpx:TrkExtension xmlns:visugpx="https://www.visugpx.com/editgpx/">
            <visugpx:node>1</visugpx:node>
            </visugpx:TrkExtension>
        </extensions>
      </trkpt>
    </trkseg>
  </trk>
</gpx>